<?xml version="1.0" encoding="UTF-8" standalone="no" ?>
<gpx xmlns="http://www.topografix.com/GPX/1/1" xmlns:xsi="http://www.w3.org/2001/XMLSchema-instance" xsi:schemaLocation="http://www.topografix.com/GPX/1/1 http://www.topografix.com/GPX/1/1/gpx.xsd" version="1.1" creator="VisuGPX - https://www.visugpx.com">
  <metadata>
    <name>Roc des Tours 1994m</name>
    <desc><![CDATA[Randonnée nordic walking sans les raquettes en ce mois de Février, sur une trace parfaitement damée (se munir, pour éviter de glisser de crampons d\'athlétisme, genre Yaktrak pro) .]]></desc>
  </metadata>
  <trk>
    <name><![CDATA[Roc des Tours]]></name>
    <trkseg>
      <trkpt lat="45.9759" lon="6.45542">
        <ele>1359.922119</ele>
        <time>2012-02-13T11:06:21Z</time>
      </trkpt>
      <trkpt lat="45.97591" lon="6.45544">
        <ele>1360.402832</ele>
        <time>2012-02-13T11:06:23Z</time>
      </trkpt>
      <trkpt lat="45.97601" lon="6.45555">
        <ele>1360.402832</ele>
        <time>2012-02-13T11:06:34Z</time>
      </trkpt>
      <trkpt lat="45.9761" lon="6.45565">
        <ele>1361.364258</ele>
        <time>2012-02-13T11:06:44Z</time>
      </trkpt>
      <trkpt lat="45.97618" lon="6.45557">
        <ele>1362.325439</ele>
        <time>2012-02-13T11:06:52Z</time>
      </trkpt>
      <trkpt lat="45.97619" lon="6.45531">
        <ele>1365.209473</ele>
        <time>2012-02-13T11:07:06Z</time>
      </trkpt>
      <trkpt lat="45.97614" lon="6.45511">
        <ele>1366.651367</ele>
        <time>2012-02-13T11:07:18Z</time>
      </trkpt>
      <trkpt lat="45.97605" lon="6.45492">
        <ele>1369.5354</ele>
        <time>2012-02-13T11:07:31Z</time>
      </trkpt>
      <trkpt lat="45.97603" lon="6.45477">
        <ele>1371.938477</ele>
        <time>2012-02-13T11:07:41Z</time>
      </trkpt>
      <trkpt lat="45.97601" lon="6.4546">
        <ele>1374.342041</ele>
        <time>2012-02-13T11:07:52Z</time>
      </trkpt>
      <trkpt lat="45.97601" lon="6.45439">
        <ele>1377.706543</ele>
        <time>2012-02-13T11:08:05Z</time>
      </trkpt>
      <trkpt lat="45.97597" lon="6.45422">
        <ele>1379.62915</ele>
        <time>2012-02-13T11:08:16Z</time>
      </trkpt>
      <trkpt lat="45.97591" lon="6.45407">
        <ele>1382.993652</ele>
        <time>2012-02-13T11:08:27Z</time>
      </trkpt>
      <trkpt lat="45.97587" lon="6.45393">
        <ele>1384.916504</ele>
        <time>2012-02-13T11:08:37Z</time>
      </trkpt>
      <trkpt lat="45.97585" lon="6.45385">
        <ele>1387.31958</ele>
        <time>2012-02-13T11:08:43Z</time>
      </trkpt>
      <trkpt lat="45.97587" lon="6.45363">
        <ele>1389.723145</ele>
        <time>2012-02-13T11:08:56Z</time>
      </trkpt>
      <trkpt lat="45.97593" lon="6.45344">
        <ele>1392.126465</ele>
        <time>2012-02-13T11:09:08Z</time>
      </trkpt>
      <trkpt lat="45.97599" lon="6.45327">
        <ele>1395.490967</ele>
        <time>2012-02-13T11:09:19Z</time>
      </trkpt>
      <trkpt lat="45.97597" lon="6.45315">
        <ele>1397.894287</ele>
        <time>2012-02-13T11:09:28Z</time>
      </trkpt>
      <trkpt lat="45.97591" lon="6.45294">
        <ele>1399.816895</ele>
        <time>2012-02-13T11:09:41Z</time>
      </trkpt>
      <trkpt lat="45.9759" lon="6.45288">
        <ele>1401.258789</ele>
        <time>2012-02-13T11:09:45Z</time>
      </trkpt>
      <trkpt lat="45.97584" lon="6.45271">
        <ele>1404.143066</ele>
        <time>2012-02-13T11:09:57Z</time>
      </trkpt>
      <trkpt lat="45.97576" lon="6.45256">
        <ele>1407.026855</ele>
        <time>2012-02-13T11:10:09Z</time>
      </trkpt>
      <trkpt lat="45.97568" lon="6.45239">
        <ele>1410.391357</ele>
        <time>2012-02-13T11:10:21Z</time>
      </trkpt>
      <trkpt lat="45.9756" lon="6.45217">
        <ele>1411.833496</ele>
        <time>2012-02-13T11:10:34Z</time>
      </trkpt>
      <trkpt lat="45.97556" lon="6.45202">
        <ele>1415.197998</ele>
        <time>2012-02-13T11:10:44Z</time>
      </trkpt>
      <trkpt lat="45.97552" lon="6.45186">
        <ele>1418.5625</ele>
        <time>2012-02-13T11:10:55Z</time>
      </trkpt>
      <trkpt lat="45.97547" lon="6.45171">
        <ele>1421.446533</ele>
        <time>2012-02-13T11:11:06Z</time>
      </trkpt>
      <trkpt lat="45.97548" lon="6.45156">
        <ele>1424.330566</ele>
        <time>2012-02-13T11:11:16Z</time>
      </trkpt>
      <trkpt lat="45.97557" lon="6.45155">
        <ele>1426.733887</ele>
        <time>2012-02-13T11:11:25Z</time>
      </trkpt>
      <trkpt lat="45.97569" lon="6.4516">
        <ele>1430.098389</ele>
        <time>2012-02-13T11:11:37Z</time>
      </trkpt>
      <trkpt lat="45.97581" lon="6.45163">
        <ele>1432.982178</ele>
        <time>2012-02-13T11:11:49Z</time>
      </trkpt>
      <trkpt lat="45.97592" lon="6.45166">
        <ele>1435.866211</ele>
        <time>2012-02-13T11:12:00Z</time>
      </trkpt>
      <trkpt lat="45.97605" lon="6.45175">
        <ele>1438.750488</ele>
        <time>2012-02-13T11:12:15Z</time>
      </trkpt>
      <trkpt lat="45.97615" lon="6.45179">
        <ele>1441.634277</ele>
        <time>2012-02-13T11:12:25Z</time>
      </trkpt>
      <trkpt lat="45.9762" lon="6.45171">
        <ele>1443.076172</ele>
        <time>2012-02-13T11:12:32Z</time>
      </trkpt>
      <trkpt lat="45.97616" lon="6.45151">
        <ele>1445.479492</ele>
        <time>2012-02-13T11:12:45Z</time>
      </trkpt>
      <trkpt lat="45.97614" lon="6.45134">
        <ele>1448.843994</ele>
        <time>2012-02-13T11:12:56Z</time>
      </trkpt>
      <trkpt lat="45.97612" lon="6.45117">
        <ele>1450.766602</ele>
        <time>2012-02-13T11:13:07Z</time>
      </trkpt>
      <trkpt lat="45.97611" lon="6.45099">
        <ele>1453.650879</ele>
        <time>2012-02-13T11:13:19Z</time>
      </trkpt>
      <trkpt lat="45.97611" lon="6.4508">
        <ele>1456.053955</ele>
        <time>2012-02-13T11:13:32Z</time>
      </trkpt>
      <trkpt lat="45.97612" lon="6.45074">
        <ele>1457.976807</ele>
        <time>2012-02-13T11:13:37Z</time>
      </trkpt>
      <trkpt lat="45.97619" lon="6.45068">
        <ele>1460.379883</ele>
        <time>2012-02-13T11:13:46Z</time>
      </trkpt>
      <trkpt lat="45.9763" lon="6.45065">
        <ele>1463.263916</ele>
        <time>2012-02-13T11:13:58Z</time>
      </trkpt>
      <trkpt lat="45.97634" lon="6.45063">
        <ele>1464.705811</ele>
        <time>2012-02-13T11:14:03Z</time>
      </trkpt>
      <trkpt lat="45.97636" lon="6.45061">
        <ele>1465.186523</ele>
        <time>2012-02-13T11:14:05Z</time>
      </trkpt>
      <trkpt lat="45.97641" lon="6.45047">
        <ele>1468.070557</ele>
        <time>2012-02-13T11:14:17Z</time>
      </trkpt>
      <trkpt lat="45.97649" lon="6.45035">
        <ele>1471.435059</ele>
        <time>2012-02-13T11:14:28Z</time>
      </trkpt>
      <trkpt lat="45.97659" lon="6.45025">
        <ele>1473.838379</ele>
        <time>2012-02-13T11:14:40Z</time>
      </trkpt>
      <trkpt lat="45.97667" lon="6.45023">
        <ele>1475.280273</ele>
        <time>2012-02-13T11:14:48Z</time>
      </trkpt>
      <trkpt lat="45.97678" lon="6.45007">
        <ele>1476.241699</ele>
        <time>2012-02-13T11:15:00Z</time>
      </trkpt>
      <trkpt lat="45.97683" lon="6.44993">
        <ele>1477.203125</ele>
        <time>2012-02-13T11:15:09Z</time>
      </trkpt>
      <trkpt lat="45.97693" lon="6.44975">
        <ele>1480.086914</ele>
        <time>2012-02-13T11:15:22Z</time>
      </trkpt>
      <trkpt lat="45.97701" lon="6.44962">
        <ele>1482.009521</ele>
        <time>2012-02-13T11:15:33Z</time>
      </trkpt>
      <trkpt lat="45.97709" lon="6.44958">
        <ele>1482.490234</ele>
        <time>2012-02-13T11:15:40Z</time>
      </trkpt>
      <trkpt lat="45.97714" lon="6.44942">
        <ele>1485.374268</ele>
        <time>2012-02-13T11:15:51Z</time>
      </trkpt>
      <trkpt lat="45.97723" lon="6.44927">
        <ele>1487.296875</ele>
        <time>2012-02-13T11:16:03Z</time>
      </trkpt>
      <trkpt lat="45.97732" lon="6.44909">
        <ele>1489.700195</ele>
        <time>2012-02-13T11:16:16Z</time>
      </trkpt>
      <trkpt lat="45.9774" lon="6.44891">
        <ele>1493.064697</ele>
        <time>2012-02-13T11:16:28Z</time>
      </trkpt>
      <trkpt lat="45.97745" lon="6.44873">
        <ele>1494.987305</ele>
        <time>2012-02-13T11:16:41Z</time>
      </trkpt>
      <trkpt lat="45.97756" lon="6.44858">
        <ele>1497.871338</ele>
        <time>2012-02-13T11:16:55Z</time>
      </trkpt>
      <trkpt lat="45.97765" lon="6.44844">
        <ele>1500.755371</ele>
        <time>2012-02-13T11:17:08Z</time>
      </trkpt>
      <trkpt lat="45.97773" lon="6.44836">
        <ele>1502.677979</ele>
        <time>2012-02-13T11:17:17Z</time>
      </trkpt>
      <trkpt lat="45.97782" lon="6.4483">
        <ele>1504.600586</ele>
        <time>2012-02-13T11:17:27Z</time>
      </trkpt>
      <trkpt lat="45.9779" lon="6.44827">
        <ele>1507.965332</ele>
        <time>2012-02-13T11:17:36Z</time>
      </trkpt>
      <trkpt lat="45.97803" lon="6.44823">
        <ele>1510.849121</ele>
        <time>2012-02-13T11:17:50Z</time>
      </trkpt>
      <trkpt lat="45.97811" lon="6.44809">
        <ele>1512.771729</ele>
        <time>2012-02-13T11:18:03Z</time>
      </trkpt>
      <trkpt lat="45.97816" lon="6.448">
        <ele>1515.655762</ele>
        <time>2012-02-13T11:18:13Z</time>
      </trkpt>
      <trkpt lat="45.97823" lon="6.44787">
        <ele>1519.020508</ele>
        <time>2012-02-13T11:18:27Z</time>
      </trkpt>
      <trkpt lat="45.97832" lon="6.44785">
        <ele>1521.904297</ele>
        <time>2012-02-13T11:18:37Z</time>
      </trkpt>
      <trkpt lat="45.97841" lon="6.44782">
        <ele>1524.78833</ele>
        <time>2012-02-13T11:18:47Z</time>
      </trkpt>
      <trkpt lat="45.97853" lon="6.44778">
        <ele>1526.230225</ele>
        <time>2012-02-13T11:19:00Z</time>
      </trkpt>
      <trkpt lat="45.97863" lon="6.44776">
        <ele>1528.633545</ele>
        <time>2012-02-13T11:19:12Z</time>
      </trkpt>
      <trkpt lat="45.97874" lon="6.44774">
        <ele>1531.998047</ele>
        <time>2012-02-13T11:19:26Z</time>
      </trkpt>
      <trkpt lat="45.97883" lon="6.4477">
        <ele>1534.882324</ele>
        <time>2012-02-13T11:19:38Z</time>
      </trkpt>
      <trkpt lat="45.97887" lon="6.44764">
        <ele>1537.766113</ele>
        <time>2012-02-13T11:19:48Z</time>
      </trkpt>
      <trkpt lat="45.97892" lon="6.44761">
        <ele>1539.208008</ele>
        <time>2012-02-13T11:19:54Z</time>
      </trkpt>
      <trkpt lat="45.97896" lon="6.44755">
        <ele>1541.611328</ele>
        <time>2012-02-13T11:20:03Z</time>
      </trkpt>
      <trkpt lat="45.97896" lon="6.44751">
        <ele>1542.572754</ele>
        <time>2012-02-13T11:20:07Z</time>
      </trkpt>
      <trkpt lat="45.97905" lon="6.44744">
        <ele>1544.014648</ele>
        <time>2012-02-13T11:20:18Z</time>
      </trkpt>
      <trkpt lat="45.97913" lon="6.44736">
        <ele>1546.417969</ele>
        <time>2012-02-13T11:20:29Z</time>
      </trkpt>
      <trkpt lat="45.97923" lon="6.44725">
        <ele>1548.821289</ele>
        <time>2012-02-13T11:20:40Z</time>
      </trkpt>
      <trkpt lat="45.97929" lon="6.44718">
        <ele>1550.743896</ele>
        <time>2012-02-13T11:20:47Z</time>
      </trkpt>
      <trkpt lat="45.97938" lon="6.44708">
        <ele>1551.705322</ele>
        <time>2012-02-13T11:20:58Z</time>
      </trkpt>
      <trkpt lat="45.97951" lon="6.44697">
        <ele>1551.705322</ele>
        <time>2012-02-13T11:21:10Z</time>
      </trkpt>
      <trkpt lat="45.97958" lon="6.44694">
        <ele>1554.108643</ele>
        <time>2012-02-13T11:21:17Z</time>
      </trkpt>
      <trkpt lat="45.97962" lon="6.44691">
        <ele>1555.550537</ele>
        <time>2012-02-13T11:21:25Z</time>
      </trkpt>
      <trkpt lat="45.97967" lon="6.44686">
        <ele>1556.992432</ele>
        <time>2012-02-13T11:21:32Z</time>
      </trkpt>
      <trkpt lat="45.97974" lon="6.44672">
        <ele>1560.356934</ele>
        <time>2012-02-13T11:21:45Z</time>
      </trkpt>
      <trkpt lat="45.97974" lon="6.44663">
        <ele>1561.318359</ele>
        <time>2012-02-13T11:21:53Z</time>
      </trkpt>
      <trkpt lat="45.97979" lon="6.44657">
        <ele>1563.240967</ele>
        <time>2012-02-13T11:22:00Z</time>
      </trkpt>
      <trkpt lat="45.97989" lon="6.44641">
        <ele>1565.644531</ele>
        <time>2012-02-13T11:22:13Z</time>
      </trkpt>
      <trkpt lat="45.97995" lon="6.44623">
        <ele>1568.047607</ele>
        <time>2012-02-13T11:22:27Z</time>
      </trkpt>
      <trkpt lat="45.98" lon="6.44605">
        <ele>1569.009033</ele>
        <time>2012-02-13T11:22:40Z</time>
      </trkpt>
      <trkpt lat="45.98005" lon="6.44585">
        <ele>1571.412109</ele>
        <time>2012-02-13T11:22:54Z</time>
      </trkpt>
      <trkpt lat="45.98009" lon="6.44565">
        <ele>1573.334961</ele>
        <time>2012-02-13T11:23:08Z</time>
      </trkpt>
      <trkpt lat="45.98016" lon="6.44549">
        <ele>1576.699463</ele>
        <time>2012-02-13T11:23:21Z</time>
      </trkpt>
      <trkpt lat="45.98022" lon="6.44539">
        <ele>1578.62207</ele>
        <time>2012-02-13T11:23:30Z</time>
      </trkpt>
      <trkpt lat="45.98028" lon="6.44528">
        <ele>1580.064209</ele>
        <time>2012-02-13T11:23:42Z</time>
      </trkpt>
      <trkpt lat="45.98033" lon="6.44518">
        <ele>1583.428711</ele>
        <time>2012-02-13T11:23:53Z</time>
      </trkpt>
      <trkpt lat="45.98039" lon="6.44506">
        <ele>1585.832031</ele>
        <time>2012-02-13T11:24:05Z</time>
      </trkpt>
      <trkpt lat="45.98046" lon="6.4449">
        <ele>1588.235352</ele>
        <time>2012-02-13T11:24:18Z</time>
      </trkpt>
      <trkpt lat="45.98054" lon="6.44481">
        <ele>1589.196533</ele>
        <time>2012-02-13T11:24:28Z</time>
      </trkpt>
      <trkpt lat="45.98061" lon="6.44468">
        <ele>1591.119141</ele>
        <time>2012-02-13T11:24:40Z</time>
      </trkpt>
      <trkpt lat="45.98062" lon="6.44459">
        <ele>1594.003174</ele>
        <time>2012-02-13T11:24:48Z</time>
      </trkpt>
      <trkpt lat="45.98062" lon="6.44458">
        <ele>1594.003174</ele>
        <time>2012-02-13T11:24:49Z</time>
      </trkpt>
      <trkpt lat="45.98064" lon="6.44448">
        <ele>1597.36792</ele>
        <time>2012-02-13T11:24:59Z</time>
      </trkpt>
      <trkpt lat="45.98066" lon="6.44436">
        <ele>1598.809814</ele>
        <time>2012-02-13T11:25:11Z</time>
      </trkpt>
      <trkpt lat="45.98065" lon="6.44424">
        <ele>1600.251953</ele>
        <time>2012-02-13T11:25:21Z</time>
      </trkpt>
      <trkpt lat="45.98065" lon="6.44421">
        <ele>1601.213135</ele>
        <time>2012-02-13T11:25:23Z</time>
      </trkpt>
      <trkpt lat="45.98062" lon="6.4441">
        <ele>1603.135742</ele>
        <time>2012-02-13T11:25:34Z</time>
      </trkpt>
      <trkpt lat="45.98061" lon="6.44395">
        <ele>1605.539063</ele>
        <time>2012-02-13T11:25:48Z</time>
      </trkpt>
      <trkpt lat="45.98062" lon="6.44385">
        <ele>1608.422852</ele>
        <time>2012-02-13T11:25:58Z</time>
      </trkpt>
      <trkpt lat="45.98065" lon="6.44374">
        <ele>1611.787598</ele>
        <time>2012-02-13T11:26:09Z</time>
      </trkpt>
      <trkpt lat="45.98067" lon="6.44362">
        <ele>1613.710205</ele>
        <time>2012-02-13T11:26:21Z</time>
      </trkpt>
      <trkpt lat="45.98068" lon="6.44349">
        <ele>1615.633057</ele>
        <time>2012-02-13T11:26:32Z</time>
      </trkpt>
      <trkpt lat="45.98067" lon="6.44336">
        <ele>1618.516846</ele>
        <time>2012-02-13T11:26:43Z</time>
      </trkpt>
      <trkpt lat="45.98065" lon="6.44322">
        <ele>1620.920166</ele>
        <time>2012-02-13T11:26:55Z</time>
      </trkpt>
      <trkpt lat="45.9806" lon="6.44305">
        <ele>1621.881348</ele>
        <time>2012-02-13T11:27:07Z</time>
      </trkpt>
      <trkpt lat="45.98057" lon="6.443">
        <ele>1623.803955</ele>
        <time>2012-02-13T11:27:12Z</time>
      </trkpt>
      <trkpt lat="45.98056" lon="6.44299">
        <ele>1624.765381</ele>
        <time>2012-02-13T11:27:14Z</time>
      </trkpt>
      <trkpt lat="45.98051" lon="6.44291">
        <ele>1627.64917</ele>
        <time>2012-02-13T11:27:24Z</time>
      </trkpt>
      <trkpt lat="45.98049" lon="6.44281">
        <ele>1629.572021</ele>
        <time>2012-02-13T11:27:34Z</time>
      </trkpt>
      <trkpt lat="45.9805" lon="6.44278">
        <ele>1631.494629</ele>
        <time>2012-02-13T11:27:38Z</time>
      </trkpt>
      <trkpt lat="45.9805" lon="6.44267">
        <ele>1632.936523</ele>
        <time>2012-02-13T11:27:48Z</time>
      </trkpt>
      <trkpt lat="45.9805" lon="6.44258">
        <ele>1634.378662</ele>
        <time>2012-02-13T11:27:58Z</time>
      </trkpt>
      <trkpt lat="45.98049" lon="6.44248">
        <ele>1637.743164</ele>
        <time>2012-02-13T11:28:08Z</time>
      </trkpt>
      <trkpt lat="45.98049" lon="6.44236">
        <ele>1639.665771</ele>
        <time>2012-02-13T11:28:21Z</time>
      </trkpt>
      <trkpt lat="45.98054" lon="6.44226">
        <ele>1642.549805</ele>
        <time>2012-02-13T11:28:32Z</time>
      </trkpt>
      <trkpt lat="45.98051" lon="6.44217">
        <ele>1644.953125</ele>
        <time>2012-02-13T11:28:42Z</time>
      </trkpt>
      <trkpt lat="45.98044" lon="6.44209">
        <ele>1648.317627</ele>
        <time>2012-02-13T11:28:53Z</time>
      </trkpt>
      <trkpt lat="45.98033" lon="6.44199">
        <ele>1650.720947</ele>
        <time>2012-02-13T11:29:08Z</time>
      </trkpt>
      <trkpt lat="45.98025" lon="6.44193">
        <ele>1654.085693</ele>
        <time>2012-02-13T11:29:21Z</time>
      </trkpt>
      <trkpt lat="45.98015" lon="6.44183">
        <ele>1655.527588</ele>
        <time>2012-02-13T11:29:34Z</time>
      </trkpt>
      <trkpt lat="45.98006" lon="6.44173">
        <ele>1657.930908</ele>
        <time>2012-02-13T11:29:46Z</time>
      </trkpt>
      <trkpt lat="45.97997" lon="6.44168">
        <ele>1660.334229</ele>
        <time>2012-02-13T11:29:58Z</time>
      </trkpt>
      <trkpt lat="45.97994" lon="6.44167">
        <ele>1660.814941</ele>
        <time>2012-02-13T11:30:02Z</time>
      </trkpt>
      <trkpt lat="45.97987" lon="6.44165">
        <ele>1661.295654</ele>
        <time>2012-02-13T11:30:13Z</time>
      </trkpt>
      <trkpt lat="45.97985" lon="6.44164">
        <ele>1662.256836</ele>
        <time>2012-02-13T11:30:20Z</time>
      </trkpt>
      <trkpt lat="45.97982" lon="6.44162">
        <ele>1662.737549</ele>
        <time>2012-02-13T11:30:37Z</time>
      </trkpt>
      <trkpt lat="45.97973" lon="6.44156">
        <ele>1663.69873</ele>
        <time>2012-02-13T11:30:47Z</time>
      </trkpt>
      <trkpt lat="45.97962" lon="6.44151">
        <ele>1665.140869</ele>
        <time>2012-02-13T11:30:59Z</time>
      </trkpt>
      <trkpt lat="45.9795" lon="6.44148">
        <ele>1668.505371</ele>
        <time>2012-02-13T11:31:13Z</time>
      </trkpt>
      <trkpt lat="45.97947" lon="6.44145">
        <ele>1669.947266</ele>
        <time>2012-02-13T11:31:19Z</time>
      </trkpt>
      <trkpt lat="45.97949" lon="6.4414">
        <ele>1673.312012</ele>
        <time>2012-02-13T11:31:26Z</time>
      </trkpt>
      <trkpt lat="45.97951" lon="6.44132">
        <ele>1675.234375</ele>
        <time>2012-02-13T11:31:38Z</time>
      </trkpt>
      <trkpt lat="45.97947" lon="6.44126">
        <ele>1677.637939</ele>
        <time>2012-02-13T11:31:49Z</time>
      </trkpt>
      <trkpt lat="45.97944" lon="6.44124">
        <ele>1678.599365</ele>
        <time>2012-02-13T11:31:53Z</time>
      </trkpt>
      <trkpt lat="45.97941" lon="6.44116">
        <ele>1681.483154</ele>
        <time>2012-02-13T11:32:04Z</time>
      </trkpt>
      <trkpt lat="45.97942" lon="6.44111">
        <ele>1682.925049</ele>
        <time>2012-02-13T11:32:10Z</time>
      </trkpt>
      <trkpt lat="45.97944" lon="6.441">
        <ele>1685.328369</ele>
        <time>2012-02-13T11:32:22Z</time>
      </trkpt>
      <trkpt lat="45.97945" lon="6.44091">
        <ele>1688.212402</ele>
        <time>2012-02-13T11:32:33Z</time>
      </trkpt>
      <trkpt lat="45.97941" lon="6.44083">
        <ele>1689.654297</ele>
        <time>2012-02-13T11:32:44Z</time>
      </trkpt>
      <trkpt lat="45.97936" lon="6.4407">
        <ele>1693.019043</ele>
        <time>2012-02-13T11:32:58Z</time>
      </trkpt>
      <trkpt lat="45.9793" lon="6.44061">
        <ele>1696.383789</ele>
        <time>2012-02-13T11:33:11Z</time>
      </trkpt>
      <trkpt lat="45.97929" lon="6.44053">
        <ele>1698.306152</ele>
        <time>2012-02-13T11:33:21Z</time>
      </trkpt>
      <trkpt lat="45.97928" lon="6.44041">
        <ele>1700.709473</ele>
        <time>2012-02-13T11:33:33Z</time>
      </trkpt>
      <trkpt lat="45.97928" lon="6.44028">
        <ele>1702.63208</ele>
        <time>2012-02-13T11:33:46Z</time>
      </trkpt>
      <trkpt lat="45.97929" lon="6.44024">
        <ele>1704.554688</ele>
        <time>2012-02-13T11:33:50Z</time>
      </trkpt>
      <trkpt lat="45.97928" lon="6.44014">
        <ele>1707.438721</ele>
        <time>2012-02-13T11:34:00Z</time>
      </trkpt>
      <trkpt lat="45.97931" lon="6.44004">
        <ele>1708.880859</ele>
        <time>2012-02-13T11:34:11Z</time>
      </trkpt>
      <trkpt lat="45.97938" lon="6.44002">
        <ele>1711.764893</ele>
        <time>2012-02-13T11:34:21Z</time>
      </trkpt>
      <trkpt lat="45.97944" lon="6.44001">
        <ele>1715.129395</ele>
        <time>2012-02-13T11:34:31Z</time>
      </trkpt>
      <trkpt lat="45.97951" lon="6.43995">
        <ele>1717.052002</ele>
        <time>2012-02-13T11:34:42Z</time>
      </trkpt>
      <trkpt lat="45.97951" lon="6.4399">
        <ele>1718.493896</ele>
        <time>2012-02-13T11:34:52Z</time>
      </trkpt>
      <trkpt lat="45.97945" lon="6.43982">
        <ele>1720.416504</ele>
        <time>2012-02-13T11:35:01Z</time>
      </trkpt>
      <trkpt lat="45.97938" lon="6.43969">
        <ele>1720.897217</ele>
        <time>2012-02-13T11:35:14Z</time>
      </trkpt>
      <trkpt lat="45.97932" lon="6.43964">
        <ele>1724.261963</ele>
        <time>2012-02-13T11:35:24Z</time>
      </trkpt>
      <trkpt lat="45.97923" lon="6.43953">
        <ele>1727.626465</ele>
        <time>2012-02-13T11:35:42Z</time>
      </trkpt>
      <trkpt lat="45.97922" lon="6.43948">
        <ele>1729.068359</ele>
        <time>2012-02-13T11:35:47Z</time>
      </trkpt>
      <trkpt lat="45.97922" lon="6.43936">
        <ele>1731.952393</ele>
        <time>2012-02-13T11:36:01Z</time>
      </trkpt>
      <trkpt lat="45.97921" lon="6.43932">
        <ele>1733.394287</ele>
        <time>2012-02-13T11:36:06Z</time>
      </trkpt>
      <trkpt lat="45.97924" lon="6.43924">
        <ele>1735.797607</ele>
        <time>2012-02-13T11:36:18Z</time>
      </trkpt>
      <trkpt lat="45.97928" lon="6.43918">
        <ele>1739.162109</ele>
        <time>2012-02-13T11:36:28Z</time>
      </trkpt>
      <trkpt lat="45.97932" lon="6.43914">
        <ele>1740.123779</ele>
        <time>2012-02-13T11:36:35Z</time>
      </trkpt>
      <trkpt lat="45.97945" lon="6.43903">
        <ele>1742.5271</ele>
        <time>2012-02-13T11:36:50Z</time>
      </trkpt>
      <trkpt lat="45.97957" lon="6.43897">
        <ele>1745.891602</ele>
        <time>2012-02-13T11:37:05Z</time>
      </trkpt>
      <trkpt lat="45.97968" lon="6.43892">
        <ele>1748.294678</ele>
        <time>2012-02-13T11:37:18Z</time>
      </trkpt>
      <trkpt lat="45.97974" lon="6.43888">
        <ele>1751.659424</ele>
        <time>2012-02-13T11:37:27Z</time>
      </trkpt>
      <trkpt lat="45.9798" lon="6.4388">
        <ele>1752.139893</ele>
        <time>2012-02-13T11:37:37Z</time>
      </trkpt>
      <trkpt lat="45.97979" lon="6.4387">
        <ele>1754.543213</ele>
        <time>2012-02-13T11:37:48Z</time>
      </trkpt>
      <trkpt lat="45.97973" lon="6.43864">
        <ele>1757.42749</ele>
        <time>2012-02-13T11:37:58Z</time>
      </trkpt>
      <trkpt lat="45.97966" lon="6.4385">
        <ele>1761.753418</ele>
        <time>2012-02-13T11:38:13Z</time>
      </trkpt>
      <trkpt lat="45.97964" lon="6.43837">
        <ele>1764.637207</ele>
        <time>2012-02-13T11:38:25Z</time>
      </trkpt>
      <trkpt lat="45.97963" lon="6.43822">
        <ele>1765.598633</ele>
        <time>2012-02-13T11:38:38Z</time>
      </trkpt>
      <trkpt lat="45.97962" lon="6.4381">
        <ele>1768.482422</ele>
        <time>2012-02-13T11:38:49Z</time>
      </trkpt>
      <trkpt lat="45.97964" lon="6.43807">
        <ele>1771.366211</ele>
        <time>2012-02-13T11:38:58Z</time>
      </trkpt>
      <trkpt lat="45.97973" lon="6.43807">
        <ele>1772.808594</ele>
        <time>2012-02-13T11:39:11Z</time>
      </trkpt>
      <trkpt lat="45.97976" lon="6.438">
        <ele>1774.731201</ele>
        <time>2012-02-13T11:39:20Z</time>
      </trkpt>
      <trkpt lat="45.97973" lon="6.43785">
        <ele>1777.134521</ele>
        <time>2012-02-13T11:39:33Z</time>
      </trkpt>
      <trkpt lat="45.9797" lon="6.43772">
        <ele>1780.018311</ele>
        <time>2012-02-13T11:39:45Z</time>
      </trkpt>
      <trkpt lat="45.97969" lon="6.4377">
        <ele>1780.018311</ele>
        <time>2012-02-13T11:39:47Z</time>
      </trkpt>
      <trkpt lat="45.9796" lon="6.43755">
        <ele>1781.940918</ele>
        <time>2012-02-13T11:40:01Z</time>
      </trkpt>
      <trkpt lat="45.97952" lon="6.43736">
        <ele>1781.940918</ele>
        <time>2012-02-13T11:40:14Z</time>
      </trkpt>
      <trkpt lat="45.97946" lon="6.43727">
        <ele>1783.863525</ele>
        <time>2012-02-13T11:40:24Z</time>
      </trkpt>
      <trkpt lat="45.97944" lon="6.4372">
        <ele>1785.786133</ele>
        <time>2012-02-13T11:40:30Z</time>
      </trkpt>
      <trkpt lat="45.97946" lon="6.43698">
        <ele>1783.382813</ele>
        <time>2012-02-13T11:40:43Z</time>
      </trkpt>
      <trkpt lat="45.9794" lon="6.4368">
        <ele>1782.9021</ele>
        <time>2012-02-13T11:40:54Z</time>
      </trkpt>
      <trkpt lat="45.97936" lon="6.4368">
        <ele>1783.382813</ele>
        <time>2012-02-13T11:40:58Z</time>
      </trkpt>
      <trkpt lat="45.97924" lon="6.43679">
        <ele>1783.863525</ele>
        <time>2012-02-13T11:41:10Z</time>
      </trkpt>
      <trkpt lat="45.9792" lon="6.43666">
        <ele>1787.228027</ele>
        <time>2012-02-13T11:41:21Z</time>
      </trkpt>
      <trkpt lat="45.97916" lon="6.43651">
        <ele>1789.150879</ele>
        <time>2012-02-13T11:41:34Z</time>
      </trkpt>
      <trkpt lat="45.97912" lon="6.43644">
        <ele>1790.592773</ele>
        <time>2012-02-13T11:41:44Z</time>
      </trkpt>
      <trkpt lat="45.97907" lon="6.43641">
        <ele>1793.476807</ele>
        <time>2012-02-13T11:41:53Z</time>
      </trkpt>
      <trkpt lat="45.97909" lon="6.43639">
        <ele>1794.918701</ele>
        <time>2012-02-13T11:42:00Z</time>
      </trkpt>
      <trkpt lat="45.97914" lon="6.43632">
        <ele>1797.802734</ele>
        <time>2012-02-13T11:42:12Z</time>
      </trkpt>
      <trkpt lat="45.97912" lon="6.43629">
        <ele>1799.244629</ele>
        <time>2012-02-13T11:42:21Z</time>
      </trkpt>
      <trkpt lat="45.97914" lon="6.43624">
        <ele>1800.686523</ele>
        <time>2012-02-13T11:42:29Z</time>
      </trkpt>
      <trkpt lat="45.97916" lon="6.43616">
        <ele>1801.647949</ele>
        <time>2012-02-13T11:42:39Z</time>
      </trkpt>
      <trkpt lat="45.97916" lon="6.43608">
        <ele>1805.012695</ele>
        <time>2012-02-13T11:42:48Z</time>
      </trkpt>
      <trkpt lat="45.97921" lon="6.43603">
        <ele>1807.416016</ele>
        <time>2012-02-13T11:42:59Z</time>
      </trkpt>
      <trkpt lat="45.97927" lon="6.43596">
        <ele>1811.26123</ele>
        <time>2012-02-13T11:43:13Z</time>
      </trkpt>
      <trkpt lat="45.97925" lon="6.43585">
        <ele>1812.703125</ele>
        <time>2012-02-13T11:43:22Z</time>
      </trkpt>
      <trkpt lat="45.97925" lon="6.43566">
        <ele>1813.664307</ele>
        <time>2012-02-13T11:43:35Z</time>
      </trkpt>
      <trkpt lat="45.97926" lon="6.43553">
        <ele>1815.106445</ele>
        <time>2012-02-13T11:43:45Z</time>
      </trkpt>
      <trkpt lat="45.9793" lon="6.43549">
        <ele>1818.95166</ele>
        <time>2012-02-13T11:43:54Z</time>
      </trkpt>
      <trkpt lat="45.97935" lon="6.43545">
        <ele>1819.912842</ele>
        <time>2012-02-13T11:44:03Z</time>
      </trkpt>
      <trkpt lat="45.97933" lon="6.43541">
        <ele>1821.35498</ele>
        <time>2012-02-13T11:44:10Z</time>
      </trkpt>
      <trkpt lat="45.97925" lon="6.43533">
        <ele>1824.239014</ele>
        <time>2012-02-13T11:44:25Z</time>
      </trkpt>
      <trkpt lat="45.97927" lon="6.43526">
        <ele>1825.680908</ele>
        <time>2012-02-13T11:44:36Z</time>
      </trkpt>
      <trkpt lat="45.97927" lon="6.43516">
        <ele>1828.564941</ele>
        <time>2012-02-13T11:44:49Z</time>
      </trkpt>
      <trkpt lat="45.97925" lon="6.43507">
        <ele>1831.44873</ele>
        <time>2012-02-13T11:44:59Z</time>
      </trkpt>
      <trkpt lat="45.97925" lon="6.435">
        <ele>1833.371338</ele>
        <time>2012-02-13T11:45:09Z</time>
      </trkpt>
      <trkpt lat="45.97923" lon="6.43485">
        <ele>1835.774658</ele>
        <time>2012-02-13T11:45:22Z</time>
      </trkpt>
      <trkpt lat="45.9792" lon="6.43476">
        <ele>1839.139404</ele>
        <time>2012-02-13T11:45:31Z</time>
      </trkpt>
      <trkpt lat="45.97919" lon="6.43465">
        <ele>1842.023438</ele>
        <time>2012-02-13T11:45:43Z</time>
      </trkpt>
      <trkpt lat="45.97917" lon="6.43454">
        <ele>1842.984619</ele>
        <time>2012-02-13T11:45:53Z</time>
      </trkpt>
      <trkpt lat="45.97914" lon="6.43441">
        <ele>1846.349365</ele>
        <time>2012-02-13T11:46:06Z</time>
      </trkpt>
      <trkpt lat="45.97912" lon="6.43429">
        <ele>1848.271729</ele>
        <time>2012-02-13T11:46:19Z</time>
      </trkpt>
      <trkpt lat="45.97911" lon="6.43416">
        <ele>1850.675049</ele>
        <time>2012-02-13T11:46:30Z</time>
      </trkpt>
      <trkpt lat="45.97909" lon="6.43402">
        <ele>1853.078613</ele>
        <time>2012-02-13T11:46:42Z</time>
      </trkpt>
      <trkpt lat="45.97908" lon="6.43392">
        <ele>1855.962402</ele>
        <time>2012-02-13T11:46:52Z</time>
      </trkpt>
      <trkpt lat="45.97905" lon="6.43379">
        <ele>1858.365723</ele>
        <time>2012-02-13T11:47:04Z</time>
      </trkpt>
      <trkpt lat="45.97901" lon="6.43363">
        <ele>1860.769043</ele>
        <time>2012-02-13T11:47:17Z</time>
      </trkpt>
      <trkpt lat="45.97897" lon="6.43354">
        <ele>1862.210938</ele>
        <time>2012-02-13T11:47:25Z</time>
      </trkpt>
      <trkpt lat="45.97892" lon="6.43341">
        <ele>1865.094971</ele>
        <time>2012-02-13T11:47:36Z</time>
      </trkpt>
      <trkpt lat="45.97888" lon="6.43329">
        <ele>1863.652832</ele>
        <time>2012-02-13T11:47:45Z</time>
      </trkpt>
      <trkpt lat="45.97885" lon="6.43316">
        <ele>1865.094971</ele>
        <time>2012-02-13T11:47:54Z</time>
      </trkpt>
      <trkpt lat="45.97883" lon="6.43304">
        <ele>1866.056152</ele>
        <time>2012-02-13T11:48:03Z</time>
      </trkpt>
      <trkpt lat="45.97881" lon="6.43291">
        <ele>1866.536865</ele>
        <time>2012-02-13T11:48:12Z</time>
      </trkpt>
      <trkpt lat="45.97881" lon="6.43286">
        <ele>1866.536865</ele>
        <time>2012-02-13T11:48:15Z</time>
      </trkpt>
      <trkpt lat="45.97877" lon="6.43272">
        <ele>1868.94043</ele>
        <time>2012-02-13T11:48:26Z</time>
      </trkpt>
      <trkpt lat="45.97879" lon="6.43262">
        <ele>1871.343506</ele>
        <time>2012-02-13T11:48:38Z</time>
      </trkpt>
      <trkpt lat="45.97879" lon="6.43249">
        <ele>1874.708252</ele>
        <time>2012-02-13T11:48:49Z</time>
      </trkpt>
      <trkpt lat="45.97875" lon="6.43239">
        <ele>1877.111572</ele>
        <time>2012-02-13T11:49:00Z</time>
      </trkpt>
      <trkpt lat="45.97872" lon="6.43227">
        <ele>1879.033936</ele>
        <time>2012-02-13T11:49:11Z</time>
      </trkpt>
      <trkpt lat="45.97871" lon="6.43222">
        <ele>1880.476074</ele>
        <time>2012-02-13T11:49:16Z</time>
      </trkpt>
      <trkpt lat="45.97866" lon="6.43211">
        <ele>1882.87915</ele>
        <time>2012-02-13T11:49:28Z</time>
      </trkpt>
      <trkpt lat="45.97861" lon="6.43204">
        <ele>1884.321533</ele>
        <time>2012-02-13T11:49:38Z</time>
      </trkpt>
      <trkpt lat="45.97855" lon="6.43198">
        <ele>1885.282715</ele>
        <time>2012-02-13T11:49:51Z</time>
      </trkpt>
      <trkpt lat="45.97848" lon="6.43191">
        <ele>1887.205322</ele>
        <time>2012-02-13T11:50:02Z</time>
      </trkpt>
      <trkpt lat="45.9784" lon="6.43187">
        <ele>1889.608643</ele>
        <time>2012-02-13T11:50:14Z</time>
      </trkpt>
      <trkpt lat="45.97837" lon="6.43186">
        <ele>1891.53125</ele>
        <time>2012-02-13T11:50:19Z</time>
      </trkpt>
      <trkpt lat="45.9783" lon="6.43186">
        <ele>1894.415039</ele>
        <time>2012-02-13T11:50:30Z</time>
      </trkpt>
      <trkpt lat="45.97823" lon="6.43183">
        <ele>1896.818359</ele>
        <time>2012-02-13T11:50:42Z</time>
      </trkpt>
      <trkpt lat="45.97818" lon="6.43172">
        <ele>1898.740967</ele>
        <time>2012-02-13T11:50:53Z</time>
      </trkpt>
      <trkpt lat="45.97814" lon="6.43166">
        <ele>1899.22168</ele>
        <time>2012-02-13T11:51:00Z</time>
      </trkpt>
      <trkpt lat="45.97809" lon="6.43159">
        <ele>1900.663818</ele>
        <time>2012-02-13T11:51:07Z</time>
      </trkpt>
      <trkpt lat="45.97798" lon="6.43152">
        <ele>1899.702393</ele>
        <time>2012-02-13T11:51:18Z</time>
      </trkpt>
      <trkpt lat="45.97785" lon="6.43146">
        <ele>1898.740967</ele>
        <time>2012-02-13T11:51:30Z</time>
      </trkpt>
      <trkpt lat="45.97774" lon="6.43141">
        <ele>1901.144531</ele>
        <time>2012-02-13T11:51:41Z</time>
      </trkpt>
      <trkpt lat="45.97765" lon="6.43141">
        <ele>1903.547852</ele>
        <time>2012-02-13T11:51:53Z</time>
      </trkpt>
      <trkpt lat="45.97756" lon="6.43143">
        <ele>1903.067139</ele>
        <time>2012-02-13T11:52:01Z</time>
      </trkpt>
      <trkpt lat="45.97751" lon="6.43143">
        <ele>1902.105713</ele>
        <time>2012-02-13T11:52:05Z</time>
      </trkpt>
      <trkpt lat="45.97741" lon="6.43137">
        <ele>1901.625244</ele>
        <time>2012-02-13T11:52:14Z</time>
      </trkpt>
      <trkpt lat="45.97731" lon="6.43126">
        <ele>1903.067139</ele>
        <time>2012-02-13T11:52:26Z</time>
      </trkpt>
      <trkpt lat="45.97728" lon="6.43123">
        <ele>1903.067139</ele>
        <time>2012-02-13T11:52:30Z</time>
      </trkpt>
      <trkpt lat="45.97721" lon="6.43112">
        <ele>1903.547852</ele>
        <time>2012-02-13T11:52:40Z</time>
      </trkpt>
      <trkpt lat="45.97715" lon="6.43102">
        <ele>1904.989746</ele>
        <time>2012-02-13T11:52:50Z</time>
      </trkpt>
      <trkpt lat="45.97709" lon="6.43091">
        <ele>1905.470459</ele>
        <time>2012-02-13T11:53:01Z</time>
      </trkpt>
      <trkpt lat="45.97701" lon="6.43081">
        <ele>1907.393066</ele>
        <time>2012-02-13T11:53:12Z</time>
      </trkpt>
      <trkpt lat="45.97701" lon="6.43075">
        <ele>1907.873779</ele>
        <time>2012-02-13T11:53:18Z</time>
      </trkpt>
      <trkpt lat="45.97698" lon="6.43065">
        <ele>1909.315674</ele>
        <time>2012-02-13T11:53:27Z</time>
      </trkpt>
      <trkpt lat="45.97694" lon="6.43061">
        <ele>1910.276855</ele>
        <time>2012-02-13T11:53:36Z</time>
      </trkpt>
      <trkpt lat="45.97692" lon="6.43054">
        <ele>1911.718994</ele>
        <time>2012-02-13T11:53:43Z</time>
      </trkpt>
      <trkpt lat="45.97687" lon="6.43038">
        <ele>1914.602783</ele>
        <time>2012-02-13T11:53:57Z</time>
      </trkpt>
      <trkpt lat="45.97685" lon="6.43024">
        <ele>1914.12207</ele>
        <time>2012-02-13T11:54:06Z</time>
      </trkpt>
      <trkpt lat="45.97678" lon="6.43013">
        <ele>1915.083496</ele>
        <time>2012-02-13T11:54:16Z</time>
      </trkpt>
      <trkpt lat="45.97668" lon="6.42997">
        <ele>1915.083496</ele>
        <time>2012-02-13T11:54:29Z</time>
      </trkpt>
      <trkpt lat="45.97662" lon="6.42988">
        <ele>1916.044922</ele>
        <time>2012-02-13T11:54:38Z</time>
      </trkpt>
      <trkpt lat="45.97654" lon="6.42981">
        <ele>1919.409668</ele>
        <time>2012-02-13T11:54:50Z</time>
      </trkpt>
      <trkpt lat="45.97649" lon="6.42973">
        <ele>1921.812744</ele>
        <time>2012-02-13T11:55:01Z</time>
      </trkpt>
      <trkpt lat="45.9765" lon="6.42965">
        <ele>1924.216064</ele>
        <time>2012-02-13T11:55:12Z</time>
      </trkpt>
      <trkpt lat="45.9765" lon="6.42962">
        <ele>1924.696777</ele>
        <time>2012-02-13T11:55:19Z</time>
      </trkpt>
      <trkpt lat="45.97649" lon="6.42957">
        <ele>1925.657959</ele>
        <time>2012-02-13T11:55:27Z</time>
      </trkpt>
      <trkpt lat="45.97644" lon="6.42952">
        <ele>1926.138672</ele>
        <time>2012-02-13T11:55:38Z</time>
      </trkpt>
      <trkpt lat="45.9764" lon="6.42948">
        <ele>1926.619385</ele>
        <time>2012-02-13T11:55:48Z</time>
      </trkpt>
      <trkpt lat="45.97635" lon="6.42943">
        <ele>1929.022461</ele>
        <time>2012-02-13T11:55:58Z</time>
      </trkpt>
      <trkpt lat="45.97627" lon="6.4294">
        <ele>1929.503174</ele>
        <time>2012-02-13T11:56:09Z</time>
      </trkpt>
      <trkpt lat="45.97623" lon="6.42939">
        <ele>1929.503174</ele>
        <time>2012-02-13T11:56:13Z</time>
      </trkpt>
      <trkpt lat="45.9762" lon="6.42938">
        <ele>1931.906494</ele>
        <time>2012-02-13T11:56:16Z</time>
      </trkpt>
      <trkpt lat="45.97612" lon="6.42937">
        <ele>1933.348633</ele>
        <time>2012-02-13T11:56:25Z</time>
      </trkpt>
      <trkpt lat="45.97604" lon="6.4293">
        <ele>1936.232666</ele>
        <time>2012-02-13T11:56:35Z</time>
      </trkpt>
      <trkpt lat="45.97597" lon="6.42913">
        <ele>1937.674561</ele>
        <time>2012-02-13T11:56:49Z</time>
      </trkpt>
      <trkpt lat="45.97595" lon="6.42908">
        <ele>1937.193848</ele>
        <time>2012-02-13T11:56:54Z</time>
      </trkpt>
      <trkpt lat="45.97598" lon="6.42894">
        <ele>1936.232666</ele>
        <time>2012-02-13T11:57:03Z</time>
      </trkpt>
      <trkpt lat="45.97595" lon="6.42888">
        <ele>1935.751953</ele>
        <time>2012-02-13T11:57:08Z</time>
      </trkpt>
      <trkpt lat="45.97582" lon="6.42892">
        <ele>1935.27124</ele>
        <time>2012-02-13T11:57:20Z</time>
      </trkpt>
      <trkpt lat="45.97578" lon="6.42888">
        <ele>1936.232666</ele>
        <time>2012-02-13T11:57:29Z</time>
      </trkpt>
      <trkpt lat="45.9758" lon="6.42871">
        <ele>1937.674561</ele>
        <time>2012-02-13T11:57:42Z</time>
      </trkpt>
      <trkpt lat="45.97579" lon="6.42869">
        <ele>1937.674561</ele>
        <time>2012-02-13T11:57:45Z</time>
      </trkpt>
      <trkpt lat="45.97574" lon="6.42866">
        <ele>1938.635986</ele>
        <time>2012-02-13T11:57:51Z</time>
      </trkpt>
      <trkpt lat="45.9756" lon="6.42864">
        <ele>1940.077881</ele>
        <time>2012-02-13T11:58:04Z</time>
      </trkpt>
      <trkpt lat="45.97556" lon="6.42857">
        <ele>1940.55835</ele>
        <time>2012-02-13T11:58:11Z</time>
      </trkpt>
      <trkpt lat="45.97556" lon="6.42854">
        <ele>1940.55835</ele>
        <time>2012-02-13T11:58:13Z</time>
      </trkpt>
      <trkpt lat="45.97552" lon="6.42844">
        <ele>1940.077881</ele>
        <time>2012-02-13T11:58:22Z</time>
      </trkpt>
      <trkpt lat="45.97544" lon="6.42844">
        <ele>1942.000488</ele>
        <time>2012-02-13T11:58:33Z</time>
      </trkpt>
      <trkpt lat="45.97535" lon="6.42838">
        <ele>1945.845703</ele>
        <time>2012-02-13T11:58:44Z</time>
      </trkpt>
      <trkpt lat="45.97525" lon="6.42832">
        <ele>1947.768311</ele>
        <time>2012-02-13T11:58:57Z</time>
      </trkpt>
      <trkpt lat="45.97515" lon="6.42825">
        <ele>1949.691162</ele>
        <time>2012-02-13T11:59:10Z</time>
      </trkpt>
      <trkpt lat="45.97514" lon="6.42822">
        <ele>1948.729736</ele>
        <time>2012-02-13T11:59:19Z</time>
      </trkpt>
      <trkpt lat="45.9751" lon="6.42819">
        <ele>1949.691162</ele>
        <time>2012-02-13T11:59:59Z</time>
      </trkpt>
      <trkpt lat="45.97505" lon="6.42818">
        <ele>1951.133057</ele>
        <time>2012-02-13T12:00:09Z</time>
      </trkpt>
      <trkpt lat="45.97497" lon="6.42818">
        <ele>1952.574951</ele>
        <time>2012-02-13T12:00:19Z</time>
      </trkpt>
      <trkpt lat="45.97492" lon="6.42816">
        <ele>1954.01709</ele>
        <time>2012-02-13T12:00:26Z</time>
      </trkpt>
      <trkpt lat="45.97479" lon="6.4281">
        <ele>1956.420166</ele>
        <time>2012-02-13T12:00:40Z</time>
      </trkpt>
      <trkpt lat="45.97467" lon="6.42806">
        <ele>1956.420166</ele>
        <time>2012-02-13T12:00:51Z</time>
      </trkpt>
      <trkpt lat="45.97457" lon="6.42803">
        <ele>1959.304199</ele>
        <time>2012-02-13T12:01:06Z</time>
      </trkpt>
      <trkpt lat="45.97455" lon="6.42796">
        <ele>1960.265381</ele>
        <time>2012-02-13T12:01:15Z</time>
      </trkpt>
      <trkpt lat="45.97461" lon="6.42786">
        <ele>1963.629883</ele>
        <time>2012-02-13T12:01:28Z</time>
      </trkpt>
      <trkpt lat="45.97466" lon="6.42775">
        <ele>1966.033447</ele>
        <time>2012-02-13T12:01:41Z</time>
      </trkpt>
      <trkpt lat="45.97467" lon="6.4277">
        <ele>1969.398193</ele>
        <time>2012-02-13T12:01:49Z</time>
      </trkpt>
      <trkpt lat="45.97464" lon="6.42761">
        <ele>1972.762695</ele>
        <time>2012-02-13T12:02:01Z</time>
      </trkpt>
      <trkpt lat="45.97462" lon="6.42755">
        <ele>1973.723877</ele>
        <time>2012-02-13T12:02:10Z</time>
      </trkpt>
      <trkpt lat="45.97458" lon="6.42747">
        <ele>1977.088623</ele>
        <time>2012-02-13T12:02:22Z</time>
      </trkpt>
      <trkpt lat="45.97452" lon="6.4274">
        <ele>1978.530518</ele>
        <time>2012-02-13T12:02:35Z</time>
      </trkpt>
      <trkpt lat="45.97447" lon="6.42735">
        <ele>1981.414551</ele>
        <time>2012-02-13T12:02:49Z</time>
      </trkpt>
      <trkpt lat="45.97441" lon="6.42729">
        <ele>1984.298584</ele>
        <time>2012-02-13T12:03:02Z</time>
      </trkpt>
      <trkpt lat="45.97436" lon="6.42721">
        <ele>1986.70166</ele>
        <time>2012-02-13T12:03:15Z</time>
      </trkpt>
      <trkpt lat="45.97438" lon="6.42715">
        <ele>1989.10498</ele>
        <time>2012-02-13T12:03:25Z</time>
      </trkpt>
      <trkpt lat="45.97429" lon="6.42711">
        <ele>1991.508301</ele>
        <time>2012-02-13T12:03:37Z</time>
      </trkpt>
      <trkpt lat="45.97421" lon="6.42708">
        <ele>1994.872803</ele>
        <time>2012-02-13T12:03:51Z</time>
      </trkpt>
      <trkpt lat="45.97422" lon="6.42703">
        <ele>1996.795654</ele>
        <time>2012-02-13T12:03:59Z</time>
      </trkpt>
      <trkpt lat="45.97426" lon="6.42694">
        <ele>1998.237549</ele>
        <time>2012-02-13T12:04:10Z</time>
      </trkpt>
      <trkpt lat="45.97433" lon="6.42685">
        <ele>2000.640869</ele>
        <time>2012-02-13T12:04:24Z</time>
      </trkpt>
      <trkpt lat="45.97435" lon="6.42683">
        <ele>2002.082764</ele>
        <time>2012-02-13T12:04:27Z</time>
      </trkpt>
      <trkpt lat="45.97439" lon="6.42676">
        <ele>2004.966797</ele>
        <time>2012-02-13T12:04:39Z</time>
      </trkpt>
      <trkpt lat="45.97431" lon="6.42672">
        <ele>2006.889404</ele>
        <time>2012-02-13T12:04:52Z</time>
      </trkpt>
      <trkpt lat="45.97422" lon="6.42668">
        <ele>2009.292725</ele>
        <time>2012-02-13T12:05:06Z</time>
      </trkpt>
      <trkpt lat="45.9742" lon="6.42667">
        <ele>2011.696045</ele>
        <time>2012-02-13T12:05:12Z</time>
      </trkpt>
      <trkpt lat="45.9742" lon="6.42664">
        <ele>2013.138184</ele>
        <time>2012-02-13T12:05:20Z</time>
      </trkpt>
      <trkpt lat="45.9742" lon="6.42661">
        <ele>2013.618652</ele>
        <time>2012-02-13T12:05:28Z</time>
      </trkpt>
      <trkpt lat="45.9742" lon="6.42659">
        <ele>2013.618652</ele>
        <time>2012-02-13T12:05:37Z</time>
      </trkpt>
      <trkpt lat="45.97419" lon="6.42665">
        <ele>2012.657471</ele>
        <time>2012-02-13T12:05:46Z</time>
      </trkpt>
      <trkpt lat="45.97421" lon="6.42668">
        <ele>2010.734619</ele>
        <time>2012-02-13T12:05:50Z</time>
      </trkpt>
      <trkpt lat="45.97422" lon="6.42668">
        <ele>2009.773193</ele>
        <time>2012-02-13T12:05:52Z</time>
      </trkpt>
      <trkpt lat="45.97435" lon="6.42674">
        <ele>2005.44751</ele>
        <time>2012-02-13T12:06:06Z</time>
      </trkpt>
      <trkpt lat="45.97437" lon="6.42681">
        <ele>2003.524902</ele>
        <time>2012-02-13T12:06:15Z</time>
      </trkpt>
      <trkpt lat="45.97431" lon="6.42687">
        <ele>2001.602295</ele>
        <time>2012-02-13T12:06:23Z</time>
      </trkpt>
      <trkpt lat="45.97424" lon="6.42699">
        <ele>1997.75708</ele>
        <time>2012-02-13T12:06:32Z</time>
      </trkpt>
      <trkpt lat="45.97422" lon="6.42703">
        <ele>1996.315186</ele>
        <time>2012-02-13T12:06:35Z</time>
      </trkpt>
      <trkpt lat="45.9742" lon="6.42708">
        <ele>1994.39209</ele>
        <time>2012-02-13T12:06:40Z</time>
      </trkpt>
      <trkpt lat="45.97426" lon="6.4271">
        <ele>1991.989014</ele>
        <time>2012-02-13T12:06:45Z</time>
      </trkpt>
      <trkpt lat="45.97436" lon="6.42715">
        <ele>1988.143799</ele>
        <time>2012-02-13T12:06:54Z</time>
      </trkpt>
      <trkpt lat="45.97438" lon="6.42717">
        <ele>1987.663086</ele>
        <time>2012-02-13T12:06:58Z</time>
      </trkpt>
      <trkpt lat="45.97436" lon="6.4272">
        <ele>1986.70166</ele>
        <time>2012-02-13T12:07:01Z</time>
      </trkpt>
      <trkpt lat="45.97437" lon="6.42724">
        <ele>1984.298584</ele>
        <time>2012-02-13T12:07:05Z</time>
      </trkpt>
      <trkpt lat="45.97445" lon="6.42733">
        <ele>1981.414551</ele>
        <time>2012-02-13T12:07:15Z</time>
      </trkpt>
      <trkpt lat="45.97452" lon="6.4274">
        <ele>1978.049805</ele>
        <time>2012-02-13T12:07:23Z</time>
      </trkpt>
      <trkpt lat="45.97456" lon="6.42745">
        <ele>1975.646484</ele>
        <time>2012-02-13T12:07:28Z</time>
      </trkpt>
      <trkpt lat="45.97462" lon="6.42757">
        <ele>1972.762695</ele>
        <time>2012-02-13T12:07:38Z</time>
      </trkpt>
      <trkpt lat="45.97464" lon="6.4276">
        <ele>1971.320557</ele>
        <time>2012-02-13T12:07:40Z</time>
      </trkpt>
      <trkpt lat="45.97465" lon="6.42769">
        <ele>1968.91748</ele>
        <time>2012-02-13T12:07:46Z</time>
      </trkpt>
      <trkpt lat="45.97466" lon="6.42774">
        <ele>1966.51416</ele>
        <time>2012-02-13T12:07:50Z</time>
      </trkpt>
      <trkpt lat="45.97465" lon="6.42777">
        <ele>1965.552979</ele>
        <time>2012-02-13T12:07:52Z</time>
      </trkpt>
      <trkpt lat="45.97459" lon="6.4279">
        <ele>1961.226807</ele>
        <time>2012-02-13T12:08:01Z</time>
      </trkpt>
      <trkpt lat="45.97455" lon="6.42796">
        <ele>1959.304199</ele>
        <time>2012-02-13T12:08:06Z</time>
      </trkpt>
      <trkpt lat="45.97458" lon="6.42806">
        <ele>1956.420166</ele>
        <time>2012-02-13T12:08:14Z</time>
      </trkpt>
      <trkpt lat="45.9747" lon="6.42807">
        <ele>1953.536377</ele>
        <time>2012-02-13T12:08:25Z</time>
      </trkpt>
      <trkpt lat="45.97473" lon="6.42808">
        <ele>1954.497559</ele>
        <time>2012-02-13T12:08:29Z</time>
      </trkpt>
      <trkpt lat="45.97488" lon="6.42816">
        <ele>1951.61377</ele>
        <time>2012-02-13T12:08:40Z</time>
      </trkpt>
      <trkpt lat="45.9749" lon="6.42817">
        <ele>1950.652344</ele>
        <time>2012-02-13T12:08:42Z</time>
      </trkpt>
      <trkpt lat="45.97502" lon="6.42818">
        <ele>1947.768311</ele>
        <time>2012-02-13T12:08:52Z</time>
      </trkpt>
      <trkpt lat="45.97511" lon="6.42819">
        <ele>1945.845703</ele>
        <time>2012-02-13T12:09:00Z</time>
      </trkpt>
      <trkpt lat="45.97515" lon="6.42827">
        <ele>1945.36499</ele>
        <time>2012-02-13T12:09:07Z</time>
      </trkpt>
      <trkpt lat="45.9753" lon="6.42836">
        <ele>1942.481201</ele>
        <time>2012-02-13T12:09:20Z</time>
      </trkpt>
      <trkpt lat="45.97533" lon="6.42838">
        <ele>1942.000488</ele>
        <time>2012-02-13T12:09:22Z</time>
      </trkpt>
      <trkpt lat="45.97545" lon="6.42845">
        <ele>1939.116455</ele>
        <time>2012-02-13T12:09:32Z</time>
      </trkpt>
      <trkpt lat="45.9755" lon="6.42844">
        <ele>1935.751953</ele>
        <time>2012-02-13T12:09:37Z</time>
      </trkpt>
      <trkpt lat="45.97554" lon="6.42846">
        <ele>1935.27124</ele>
        <time>2012-02-13T12:09:40Z</time>
      </trkpt>
      <trkpt lat="45.97556" lon="6.42863">
        <ele>1936.232666</ele>
        <time>2012-02-13T12:09:50Z</time>
      </trkpt>
      <trkpt lat="45.97569" lon="6.42867">
        <ele>1935.27124</ele>
        <time>2012-02-13T12:10:00Z</time>
      </trkpt>
      <trkpt lat="45.97579" lon="6.42869">
        <ele>1933.348633</ele>
        <time>2012-02-13T12:10:09Z</time>
      </trkpt>
      <trkpt lat="45.97579" lon="6.4287">
        <ele>1933.348633</ele>
        <time>2012-02-13T12:10:10Z</time>
      </trkpt>
      <trkpt lat="45.97576" lon="6.42891">
        <ele>1932.387451</ele>
        <time>2012-02-13T12:10:22Z</time>
      </trkpt>
      <trkpt lat="45.9758" lon="6.42894">
        <ele>1930.4646</ele>
        <time>2012-02-13T12:10:27Z</time>
      </trkpt>
      <trkpt lat="45.97596" lon="6.42889">
        <ele>1929.983887</ele>
        <time>2012-02-13T12:10:40Z</time>
      </trkpt>
      <trkpt lat="45.97597" lon="6.42896">
        <ele>1930.4646</ele>
        <time>2012-02-13T12:10:47Z</time>
      </trkpt>
      <trkpt lat="45.97594" lon="6.42911">
        <ele>1932.387451</ele>
        <time>2012-02-13T12:10:56Z</time>
      </trkpt>
      <trkpt lat="45.97602" lon="6.42932">
        <ele>1930.4646</ele>
        <time>2012-02-13T12:11:09Z</time>
      </trkpt>
      <trkpt lat="45.97614" lon="6.4294">
        <ele>1928.061279</ele>
        <time>2012-02-13T12:11:19Z</time>
      </trkpt>
      <trkpt lat="45.97627" lon="6.42942">
        <ele>1926.138672</ele>
        <time>2012-02-13T12:11:29Z</time>
      </trkpt>
      <trkpt lat="45.97632" lon="6.42943">
        <ele>1924.696777</ele>
        <time>2012-02-13T12:11:34Z</time>
      </trkpt>
      <trkpt lat="45.97639" lon="6.42949">
        <ele>1921.812744</ele>
        <time>2012-02-13T12:11:45Z</time>
      </trkpt>
      <trkpt lat="45.97645" lon="6.42956">
        <ele>1919.409668</ele>
        <time>2012-02-13T12:11:53Z</time>
      </trkpt>
      <trkpt lat="45.97648" lon="6.42963">
        <ele>1918.928955</ele>
        <time>2012-02-13T12:12:02Z</time>
      </trkpt>
      <trkpt lat="45.97647" lon="6.4297">
        <ele>1917.006348</ele>
        <time>2012-02-13T12:12:06Z</time>
      </trkpt>
      <trkpt lat="45.97649" lon="6.42978">
        <ele>1914.602783</ele>
        <time>2012-02-13T12:12:11Z</time>
      </trkpt>
      <trkpt lat="45.97657" lon="6.42985">
        <ele>1911.718994</ele>
        <time>2012-02-13T12:12:18Z</time>
      </trkpt>
      <trkpt lat="45.97664" lon="6.42994">
        <ele>1907.873779</ele>
        <time>2012-02-13T12:12:25Z</time>
      </trkpt>
      <trkpt lat="45.97674" lon="6.43009">
        <ele>1908.354248</ele>
        <time>2012-02-13T12:12:36Z</time>
      </trkpt>
      <trkpt lat="45.97682" lon="6.43023">
        <ele>1907.873779</ele>
        <time>2012-02-13T12:12:45Z</time>
      </trkpt>
      <trkpt lat="45.97686" lon="6.43035">
        <ele>1908.354248</ele>
        <time>2012-02-13T12:12:52Z</time>
      </trkpt>
      <trkpt lat="45.97687" lon="6.43047">
        <ele>1906.431641</ele>
        <time>2012-02-13T12:12:59Z</time>
      </trkpt>
      <trkpt lat="45.97692" lon="6.43064">
        <ele>1904.989746</ele>
        <time>2012-02-13T12:13:09Z</time>
      </trkpt>
      <trkpt lat="45.97694" lon="6.43065">
        <ele>1904.509033</ele>
        <time>2012-02-13T12:13:11Z</time>
      </trkpt>
      <trkpt lat="45.97696" lon="6.43066">
        <ele>1903.547852</ele>
        <time>2012-02-13T12:13:13Z</time>
      </trkpt>
      <trkpt lat="45.97698" lon="6.43068">
        <ele>1902.586426</ele>
        <time>2012-02-13T12:13:15Z</time>
      </trkpt>
      <trkpt lat="45.977" lon="6.43073">
        <ele>1901.144531</ele>
        <time>2012-02-13T12:13:18Z</time>
      </trkpt>
      <trkpt lat="45.97699" lon="6.4308">
        <ele>1900.663818</ele>
        <time>2012-02-13T12:13:23Z</time>
      </trkpt>
      <trkpt lat="45.97702" lon="6.43085">
        <ele>1900.663818</ele>
        <time>2012-02-13T12:13:27Z</time>
      </trkpt>
      <trkpt lat="45.97711" lon="6.43097">
        <ele>1898.740967</ele>
        <time>2012-02-13T12:13:36Z</time>
      </trkpt>
      <trkpt lat="45.97718" lon="6.4311">
        <ele>1896.818359</ele>
        <time>2012-02-13T12:13:45Z</time>
      </trkpt>
      <trkpt lat="45.97727" lon="6.43125">
        <ele>1894.415039</ele>
        <time>2012-02-13T12:13:55Z</time>
      </trkpt>
      <trkpt lat="45.97737" lon="6.43136">
        <ele>1893.93457</ele>
        <time>2012-02-13T12:14:04Z</time>
      </trkpt>
      <trkpt lat="45.97751" lon="6.43146">
        <ele>1893.453857</ele>
        <time>2012-02-13T12:14:15Z</time>
      </trkpt>
      <trkpt lat="45.97765" lon="6.43143">
        <ele>1895.376465</ele>
        <time>2012-02-13T12:14:25Z</time>
      </trkpt>
      <trkpt lat="45.97776" lon="6.43143">
        <ele>1892.973145</ele>
        <time>2012-02-13T12:14:34Z</time>
      </trkpt>
      <trkpt lat="45.97788" lon="6.4315">
        <ele>1892.492676</ele>
        <time>2012-02-13T12:14:43Z</time>
      </trkpt>
      <trkpt lat="45.97799" lon="6.43157">
        <ele>1892.973145</ele>
        <time>2012-02-13T12:14:53Z</time>
      </trkpt>
      <trkpt lat="45.97812" lon="6.43169">
        <ele>1892.492676</ele>
        <time>2012-02-13T12:15:05Z</time>
      </trkpt>
      <trkpt lat="45.97818" lon="6.43178">
        <ele>1890.569824</ele>
        <time>2012-02-13T12:15:12Z</time>
      </trkpt>
      <trkpt lat="45.97825" lon="6.43187">
        <ele>1886.724609</ele>
        <time>2012-02-13T12:15:19Z</time>
      </trkpt>
      <trkpt lat="45.97838" lon="6.43188">
        <ele>1882.87915</ele>
        <time>2012-02-13T12:15:29Z</time>
      </trkpt>
      <trkpt lat="45.97847" lon="6.43193">
        <ele>1879.995361</ele>
        <time>2012-02-13T12:15:37Z</time>
      </trkpt>
      <trkpt lat="45.97856" lon="6.43201">
        <ele>1876.630859</ele>
        <time>2012-02-13T12:15:47Z</time>
      </trkpt>
      <trkpt lat="45.97862" lon="6.4321">
        <ele>1873.266357</ele>
        <time>2012-02-13T12:15:55Z</time>
      </trkpt>
      <trkpt lat="45.97863" lon="6.43211">
        <ele>1873.266357</ele>
        <time>2012-02-13T12:15:56Z</time>
      </trkpt>
      <trkpt lat="45.97865" lon="6.43215">
        <ele>1871.824219</ele>
        <time>2012-02-13T12:15:59Z</time>
      </trkpt>
      <trkpt lat="45.97871" lon="6.43232">
        <ele>1869.901611</ele>
        <time>2012-02-13T12:16:10Z</time>
      </trkpt>
      <trkpt lat="45.97875" lon="6.43249">
        <ele>1867.498047</ele>
        <time>2012-02-13T12:16:22Z</time>
      </trkpt>
      <trkpt lat="45.97877" lon="6.43253">
        <ele>1866.056152</ele>
        <time>2012-02-13T12:16:25Z</time>
      </trkpt>
      <trkpt lat="45.97877" lon="6.43261">
        <ele>1864.614258</ele>
        <time>2012-02-13T12:16:30Z</time>
      </trkpt>
      <trkpt lat="45.97876" lon="6.43268">
        <ele>1863.172363</ele>
        <time>2012-02-13T12:16:35Z</time>
      </trkpt>
      <trkpt lat="45.97877" lon="6.43278">
        <ele>1860.769043</ele>
        <time>2012-02-13T12:16:42Z</time>
      </trkpt>
      <trkpt lat="45.97879" lon="6.43295">
        <ele>1859.327148</ele>
        <time>2012-02-13T12:16:52Z</time>
      </trkpt>
      <trkpt lat="45.97882" lon="6.43311">
        <ele>1856.923828</ele>
        <time>2012-02-13T12:17:00Z</time>
      </trkpt>
      <trkpt lat="45.97885" lon="6.43327">
        <ele>1855.001221</ele>
        <time>2012-02-13T12:17:08Z</time>
      </trkpt>
      <trkpt lat="45.97889" lon="6.43341">
        <ele>1856.443115</ele>
        <time>2012-02-13T12:17:16Z</time>
      </trkpt>
      <trkpt lat="45.97895" lon="6.43356">
        <ele>1855.001221</ele>
        <time>2012-02-13T12:17:25Z</time>
      </trkpt>
      <trkpt lat="45.97901" lon="6.43369">
        <ele>1852.117188</ele>
        <time>2012-02-13T12:17:33Z</time>
      </trkpt>
      <trkpt lat="45.97905" lon="6.43386">
        <ele>1848.752441</ele>
        <time>2012-02-13T12:17:42Z</time>
      </trkpt>
      <trkpt lat="45.97907" lon="6.43397">
        <ele>1845.387939</ele>
        <time>2012-02-13T12:17:49Z</time>
      </trkpt>
      <trkpt lat="45.97909" lon="6.43419">
        <ele>1842.984619</ele>
        <time>2012-02-13T12:18:01Z</time>
      </trkpt>
      <trkpt lat="45.97911" lon="6.43434">
        <ele>1840.10083</ele>
        <time>2012-02-13T12:18:11Z</time>
      </trkpt>
      <trkpt lat="45.97912" lon="6.43444">
        <ele>1837.69751</ele>
        <time>2012-02-13T12:18:17Z</time>
      </trkpt>
      <trkpt lat="45.97912" lon="6.43447">
        <ele>1836.736084</ele>
        <time>2012-02-13T12:18:19Z</time>
      </trkpt>
      <trkpt lat="45.97917" lon="6.43463">
        <ele>1833.371338</ele>
        <time>2012-02-13T12:18:29Z</time>
      </trkpt>
      <trkpt lat="45.97918" lon="6.43467">
        <ele>1832.890625</ele>
        <time>2012-02-13T12:18:31Z</time>
      </trkpt>
      <trkpt lat="45.9792" lon="6.4348">
        <ele>1830.006836</ele>
        <time>2012-02-13T12:18:40Z</time>
      </trkpt>
      <trkpt lat="45.9792" lon="6.43484">
        <ele>1828.084229</ele>
        <time>2012-02-13T12:18:43Z</time>
      </trkpt>
      <trkpt lat="45.97924" lon="6.435">
        <ele>1824.719727</ele>
        <time>2012-02-13T12:18:53Z</time>
      </trkpt>
      <trkpt lat="45.97924" lon="6.43504">
        <ele>1823.758301</ele>
        <time>2012-02-13T12:18:55Z</time>
      </trkpt>
      <trkpt lat="45.97924" lon="6.43506">
        <ele>1822.316406</ele>
        <time>2012-02-13T12:18:57Z</time>
      </trkpt>
      <trkpt lat="45.97925" lon="6.43516">
        <ele>1819.912842</ele>
        <time>2012-02-13T12:19:04Z</time>
      </trkpt>
      <trkpt lat="45.97925" lon="6.43528">
        <ele>1817.029053</ele>
        <time>2012-02-13T12:19:13Z</time>
      </trkpt>
      <trkpt lat="45.97924" lon="6.43533">
        <ele>1814.625732</ele>
        <time>2012-02-13T12:19:17Z</time>
      </trkpt>
      <trkpt lat="45.9793" lon="6.4354">
        <ele>1811.741943</ele>
        <time>2012-02-13T12:19:26Z</time>
      </trkpt>
      <trkpt lat="45.97934" lon="6.43546">
        <ele>1808.377197</ele>
        <time>2012-02-13T12:19:34Z</time>
      </trkpt>
      <trkpt lat="45.97928" lon="6.43549">
        <ele>1805.493408</ele>
        <time>2012-02-13T12:19:41Z</time>
      </trkpt>
      <trkpt lat="45.97925" lon="6.43559">
        <ele>1803.570557</ele>
        <time>2012-02-13T12:19:48Z</time>
      </trkpt>
      <trkpt lat="45.97924" lon="6.4358">
        <ele>1801.647949</ele>
        <time>2012-02-13T12:19:59Z</time>
      </trkpt>
      <trkpt lat="45.97926" lon="6.43594">
        <ele>1800.206055</ele>
        <time>2012-02-13T12:20:07Z</time>
      </trkpt>
      <trkpt lat="45.97925" lon="6.43599">
        <ele>1799.244629</ele>
        <time>2012-02-13T12:20:10Z</time>
      </trkpt>
      <trkpt lat="45.97923" lon="6.43602">
        <ele>1797.802734</ele>
        <time>2012-02-13T12:20:13Z</time>
      </trkpt>
      <trkpt lat="45.97917" lon="6.43605">
        <ele>1794.437988</ele>
        <time>2012-02-13T12:20:21Z</time>
      </trkpt>
      <trkpt lat="45.97915" lon="6.43608">
        <ele>1793.476807</ele>
        <time>2012-02-13T12:20:23Z</time>
      </trkpt>
      <trkpt lat="45.97916" lon="6.43615">
        <ele>1791.554199</ele>
        <time>2012-02-13T12:20:27Z</time>
      </trkpt>
      <trkpt lat="45.97913" lon="6.43625">
        <ele>1790.112305</ele>
        <time>2012-02-13T12:20:34Z</time>
      </trkpt>
      <trkpt lat="45.97911" lon="6.43628">
        <ele>1789.150879</ele>
        <time>2012-02-13T12:20:41Z</time>
      </trkpt>
      <trkpt lat="45.97914" lon="6.43632">
        <ele>1787.228027</ele>
        <time>2012-02-13T12:20:46Z</time>
      </trkpt>
      <trkpt lat="45.97908" lon="6.43641">
        <ele>1783.863525</ele>
        <time>2012-02-13T12:20:56Z</time>
      </trkpt>
      <trkpt lat="45.97907" lon="6.43642">
        <ele>1782.9021</ele>
        <time>2012-02-13T12:20:58Z</time>
      </trkpt>
      <trkpt lat="45.97908" lon="6.43646">
        <ele>1781.460205</ele>
        <time>2012-02-13T12:21:01Z</time>
      </trkpt>
      <trkpt lat="45.97915" lon="6.43648">
        <ele>1779.537598</ele>
        <time>2012-02-13T12:21:10Z</time>
      </trkpt>
      <trkpt lat="45.97916" lon="6.43652">
        <ele>1778.095703</ele>
        <time>2012-02-13T12:21:13Z</time>
      </trkpt>
      <trkpt lat="45.97917" lon="6.43655">
        <ele>1777.61499</ele>
        <time>2012-02-13T12:21:15Z</time>
      </trkpt>
      <trkpt lat="45.97919" lon="6.43662">
        <ele>1776.173096</ele>
        <time>2012-02-13T12:21:19Z</time>
      </trkpt>
      <trkpt lat="45.97922" lon="6.43678">
        <ele>1773.769775</ele>
        <time>2012-02-13T12:21:30Z</time>
      </trkpt>
      <trkpt lat="45.97924" lon="6.43681">
        <ele>1773.289307</ele>
        <time>2012-02-13T12:21:33Z</time>
      </trkpt>
      <trkpt lat="45.97938" lon="6.4368">
        <ele>1770.885742</ele>
        <time>2012-02-13T12:21:45Z</time>
      </trkpt>
      <trkpt lat="45.97944" lon="6.43688">
        <ele>1769.924316</ele>
        <time>2012-02-13T12:21:51Z</time>
      </trkpt>
      <trkpt lat="45.97944" lon="6.43708">
        <ele>1771.846924</ele>
        <time>2012-02-13T12:22:01Z</time>
      </trkpt>
      <trkpt lat="45.97943" lon="6.43723">
        <ele>1774.250488</ele>
        <time>2012-02-13T12:22:11Z</time>
      </trkpt>
      <trkpt lat="45.97949" lon="6.43732">
        <ele>1770.885742</ele>
        <time>2012-02-13T12:22:18Z</time>
      </trkpt>
      <trkpt lat="45.97955" lon="6.43745">
        <ele>1769.924316</ele>
        <time>2012-02-13T12:22:27Z</time>
      </trkpt>
      <trkpt lat="45.97965" lon="6.43762">
        <ele>1768.963135</ele>
        <time>2012-02-13T12:22:39Z</time>
      </trkpt>
      <trkpt lat="45.97972" lon="6.43778">
        <ele>1767.520996</ele>
        <time>2012-02-13T12:22:49Z</time>
      </trkpt>
      <trkpt lat="45.97975" lon="6.43798">
        <ele>1764.156494</ele>
        <time>2012-02-13T12:23:00Z</time>
      </trkpt>
      <trkpt lat="45.97975" lon="6.43807">
        <ele>1762.233887</ele>
        <time>2012-02-13T12:23:05Z</time>
      </trkpt>
      <trkpt lat="45.97967" lon="6.43809">
        <ele>1759.830566</ele>
        <time>2012-02-13T12:23:13Z</time>
      </trkpt>
      <trkpt lat="45.97961" lon="6.43807">
        <ele>1758.388672</ele>
        <time>2012-02-13T12:23:19Z</time>
      </trkpt>
      <trkpt lat="45.97961" lon="6.43811">
        <ele>1756.466064</ele>
        <time>2012-02-13T12:23:22Z</time>
      </trkpt>
      <trkpt lat="45.97962" lon="6.43827">
        <ele>1753.582031</ele>
        <time>2012-02-13T12:23:31Z</time>
      </trkpt>
      <trkpt lat="45.97965" lon="6.43845">
        <ele>1750.697998</ele>
        <time>2012-02-13T12:23:41Z</time>
      </trkpt>
      <trkpt lat="45.97967" lon="6.43853">
        <ele>1747.814209</ele>
        <time>2012-02-13T12:23:46Z</time>
      </trkpt>
      <trkpt lat="45.97976" lon="6.43864">
        <ele>1744.449463</ele>
        <time>2012-02-13T12:23:57Z</time>
      </trkpt>
      <trkpt lat="45.97978" lon="6.43865">
        <ele>1743.488281</ele>
        <time>2012-02-13T12:23:59Z</time>
      </trkpt>
      <trkpt lat="45.97982" lon="6.43875">
        <ele>1741.565674</ele>
        <time>2012-02-13T12:24:07Z</time>
      </trkpt>
      <trkpt lat="45.97975" lon="6.43884">
        <ele>1738.200928</ele>
        <time>2012-02-13T12:24:15Z</time>
      </trkpt>
      <trkpt lat="45.97965" lon="6.43889">
        <ele>1734.836426</ele>
        <time>2012-02-13T12:24:24Z</time>
      </trkpt>
      <trkpt lat="45.97953" lon="6.43894">
        <ele>1731.47168</ele>
        <time>2012-02-13T12:24:34Z</time>
      </trkpt>
      <trkpt lat="45.97936" lon="6.43906">
        <ele>1728.107178</ele>
        <time>2012-02-13T12:24:48Z</time>
      </trkpt>
      <trkpt lat="45.97929" lon="6.43914">
        <ele>1725.703857</ele>
        <time>2012-02-13T12:24:55Z</time>
      </trkpt>
      <trkpt lat="45.97923" lon="6.43926">
        <ele>1722.339111</ele>
        <time>2012-02-13T12:25:04Z</time>
      </trkpt>
      <trkpt lat="45.97922" lon="6.43943">
        <ele>1718.974609</ele>
        <time>2012-02-13T12:25:13Z</time>
      </trkpt>
      <trkpt lat="45.97922" lon="6.43949">
        <ele>1717.532471</ele>
        <time>2012-02-13T12:25:16Z</time>
      </trkpt>
      <trkpt lat="45.97927" lon="6.43961">
        <ele>1714.167969</ele>
        <time>2012-02-13T12:25:24Z</time>
      </trkpt>
      <trkpt lat="45.97931" lon="6.43965">
        <ele>1713.206787</ele>
        <time>2012-02-13T12:25:28Z</time>
      </trkpt>
      <trkpt lat="45.97937" lon="6.43969">
        <ele>1709.842041</ele>
        <time>2012-02-13T12:25:35Z</time>
      </trkpt>
      <trkpt lat="45.97935" lon="6.4398">
        <ele>1706.477295</ele>
        <time>2012-02-13T12:25:42Z</time>
      </trkpt>
      <trkpt lat="45.97933" lon="6.43987">
        <ele>1704.554688</ele>
        <time>2012-02-13T12:25:47Z</time>
      </trkpt>
      <trkpt lat="45.97931" lon="6.43995">
        <ele>1700.709473</ele>
        <time>2012-02-13T12:25:52Z</time>
      </trkpt>
      <trkpt lat="45.97929" lon="6.44005">
        <ele>1697.825684</ele>
        <time>2012-02-13T12:25:59Z</time>
      </trkpt>
      <trkpt lat="45.97928" lon="6.44008">
        <ele>1695.903076</ele>
        <time>2012-02-13T12:26:01Z</time>
      </trkpt>
      <trkpt lat="45.97928" lon="6.4402">
        <ele>1693.499756</ele>
        <time>2012-02-13T12:26:08Z</time>
      </trkpt>
      <trkpt lat="45.97929" lon="6.44024">
        <ele>1692.538574</ele>
        <time>2012-02-13T12:26:10Z</time>
      </trkpt>
      <trkpt lat="45.97928" lon="6.44034">
        <ele>1689.173584</ele>
        <time>2012-02-13T12:26:16Z</time>
      </trkpt>
      <trkpt lat="45.9793" lon="6.44047">
        <ele>1686.770264</ele>
        <time>2012-02-13T12:26:23Z</time>
      </trkpt>
      <trkpt lat="45.97928" lon="6.44057">
        <ele>1685.328369</ele>
        <time>2012-02-13T12:26:29Z</time>
      </trkpt>
      <trkpt lat="45.97932" lon="6.44064">
        <ele>1682.925049</ele>
        <time>2012-02-13T12:26:35Z</time>
      </trkpt>
      <trkpt lat="45.97936" lon="6.44071">
        <ele>1680.521973</ele>
        <time>2012-02-13T12:26:40Z</time>
      </trkpt>
      <trkpt lat="45.97943" lon="6.44087">
        <ele>1676.676758</ele>
        <time>2012-02-13T12:26:50Z</time>
      </trkpt>
      <trkpt lat="45.97946" lon="6.44092">
        <ele>1675.715088</ele>
        <time>2012-02-13T12:26:54Z</time>
      </trkpt>
      <trkpt lat="45.97945" lon="6.44096">
        <ele>1674.273193</ele>
        <time>2012-02-13T12:26:57Z</time>
      </trkpt>
      <trkpt lat="45.97942" lon="6.44109">
        <ele>1670.908691</ele>
        <time>2012-02-13T12:27:06Z</time>
      </trkpt>
      <trkpt lat="45.97941" lon="6.44121">
        <ele>1668.024658</ele>
        <time>2012-02-13T12:27:14Z</time>
      </trkpt>
      <trkpt lat="45.97943" lon="6.44124">
        <ele>1667.063477</ele>
        <time>2012-02-13T12:27:16Z</time>
      </trkpt>
      <trkpt lat="45.97948" lon="6.44129">
        <ele>1663.69873</ele>
        <time>2012-02-13T12:27:22Z</time>
      </trkpt>
      <trkpt lat="45.97953" lon="6.44138">
        <ele>1660.814941</ele>
        <time>2012-02-13T12:27:31Z</time>
      </trkpt>
      <trkpt lat="45.97951" lon="6.44141">
        <ele>1659.853271</ele>
        <time>2012-02-13T12:27:34Z</time>
      </trkpt>
      <trkpt lat="45.97948" lon="6.44146">
        <ele>1656.969482</ele>
        <time>2012-02-13T12:27:39Z</time>
      </trkpt>
      <trkpt lat="45.97955" lon="6.44151">
        <ele>1653.124268</ele>
        <time>2012-02-13T12:27:45Z</time>
      </trkpt>
      <trkpt lat="45.97965" lon="6.44153">
        <ele>1650.720947</ele>
        <time>2012-02-13T12:27:54Z</time>
      </trkpt>
      <trkpt lat="45.97976" lon="6.44159">
        <ele>1649.759766</ele>
        <time>2012-02-13T12:28:05Z</time>
      </trkpt>
      <trkpt lat="45.97984" lon="6.44164">
        <ele>1647.837158</ele>
        <time>2012-02-13T12:28:16Z</time>
      </trkpt>
      <trkpt lat="45.9799" lon="6.44166">
        <ele>1646.875732</ele>
        <time>2012-02-13T12:28:33Z</time>
      </trkpt>
      <trkpt lat="45.98002" lon="6.4417">
        <ele>1644.472412</ele>
        <time>2012-02-13T12:28:43Z</time>
      </trkpt>
      <trkpt lat="45.98011" lon="6.44181">
        <ele>1641.588379</ele>
        <time>2012-02-13T12:28:52Z</time>
      </trkpt>
      <trkpt lat="45.98025" lon="6.44195">
        <ele>1639.665771</ele>
        <time>2012-02-13T12:29:05Z</time>
      </trkpt>
      <trkpt lat="45.98035" lon="6.44203">
        <ele>1636.30127</ele>
        <time>2012-02-13T12:29:13Z</time>
      </trkpt>
      <trkpt lat="45.98044" lon="6.44212">
        <ele>1632.936523</ele>
        <time>2012-02-13T12:29:22Z</time>
      </trkpt>
      <trkpt lat="45.98053" lon="6.44224">
        <ele>1630.052734</ele>
        <time>2012-02-13T12:29:32Z</time>
      </trkpt>
      <trkpt lat="45.9805" lon="6.44231">
        <ele>1627.168701</ele>
        <time>2012-02-13T12:29:37Z</time>
      </trkpt>
      <trkpt lat="45.98047" lon="6.44247">
        <ele>1623.803955</ele>
        <time>2012-02-13T12:29:46Z</time>
      </trkpt>
      <trkpt lat="45.98048" lon="6.44254">
        <ele>1622.362061</ele>
        <time>2012-02-13T12:29:50Z</time>
      </trkpt>
      <trkpt lat="45.98049" lon="6.44261">
        <ele>1620.920166</ele>
        <time>2012-02-13T12:29:54Z</time>
      </trkpt>
      <trkpt lat="45.98048" lon="6.44278">
        <ele>1618.036133</ele>
        <time>2012-02-13T12:30:04Z</time>
      </trkpt>
      <trkpt lat="45.98046" lon="6.44287">
        <ele>1614.671631</ele>
        <time>2012-02-13T12:30:09Z</time>
      </trkpt>
      <trkpt lat="45.98047" lon="6.44291">
        <ele>1614.190918</ele>
        <time>2012-02-13T12:30:11Z</time>
      </trkpt>
      <trkpt lat="45.98053" lon="6.443">
        <ele>1610.826172</ele>
        <time>2012-02-13T12:30:18Z</time>
      </trkpt>
      <trkpt lat="45.98058" lon="6.44308">
        <ele>1607.942383</ele>
        <time>2012-02-13T12:30:23Z</time>
      </trkpt>
      <trkpt lat="45.98063" lon="6.44326">
        <ele>1606.500244</ele>
        <time>2012-02-13T12:30:33Z</time>
      </trkpt>
      <trkpt lat="45.98066" lon="6.44347">
        <ele>1604.097168</ele>
        <time>2012-02-13T12:30:45Z</time>
      </trkpt>
      <trkpt lat="45.98065" lon="6.44362">
        <ele>1600.732422</ele>
        <time>2012-02-13T12:30:53Z</time>
      </trkpt>
      <trkpt lat="45.98065" lon="6.44365">
        <ele>1599.77124</ele>
        <time>2012-02-13T12:30:55Z</time>
      </trkpt>
      <trkpt lat="45.98063" lon="6.44378">
        <ele>1596.887207</ele>
        <time>2012-02-13T12:31:02Z</time>
      </trkpt>
      <trkpt lat="45.98059" lon="6.44394">
        <ele>1594.483643</ele>
        <time>2012-02-13T12:31:12Z</time>
      </trkpt>
      <trkpt lat="45.98059" lon="6.444">
        <ele>1592.561279</ele>
        <time>2012-02-13T12:31:15Z</time>
      </trkpt>
      <trkpt lat="45.9806" lon="6.44409">
        <ele>1588.716064</ele>
        <time>2012-02-13T12:31:19Z</time>
      </trkpt>
      <trkpt lat="45.9806" lon="6.44411">
        <ele>1588.716064</ele>
        <time>2012-02-13T12:31:20Z</time>
      </trkpt>
      <trkpt lat="45.98063" lon="6.44426">
        <ele>1586.793213</ele>
        <time>2012-02-13T12:31:29Z</time>
      </trkpt>
      <trkpt lat="45.98065" lon="6.4444">
        <ele>1583.909424</ele>
        <time>2012-02-13T12:31:37Z</time>
      </trkpt>
      <trkpt lat="45.98063" lon="6.44449">
        <ele>1581.025635</ele>
        <time>2012-02-13T12:31:43Z</time>
      </trkpt>
      <trkpt lat="45.98061" lon="6.44466">
        <ele>1578.62207</ele>
        <time>2012-02-13T12:31:53Z</time>
      </trkpt>
      <trkpt lat="45.98058" lon="6.44473">
        <ele>1575.738037</ele>
        <time>2012-02-13T12:31:58Z</time>
      </trkpt>
      <trkpt lat="45.9805" lon="6.44485">
        <ele>1574.296143</ele>
        <time>2012-02-13T12:32:08Z</time>
      </trkpt>
      <trkpt lat="45.98042" lon="6.44499">
        <ele>1572.373535</ele>
        <time>2012-02-13T12:32:19Z</time>
      </trkpt>
      <trkpt lat="45.98041" lon="6.44502">
        <ele>1571.412109</ele>
        <time>2012-02-13T12:32:21Z</time>
      </trkpt>
      <trkpt lat="45.98033" lon="6.44518">
        <ele>1569.009033</ele>
        <time>2012-02-13T12:32:32Z</time>
      </trkpt>
      <trkpt lat="45.98027" lon="6.44528">
        <ele>1565.644531</ele>
        <time>2012-02-13T12:32:39Z</time>
      </trkpt>
      <trkpt lat="45.98019" lon="6.44543">
        <ele>1562.279541</ele>
        <time>2012-02-13T12:32:49Z</time>
      </trkpt>
      <trkpt lat="45.98013" lon="6.44556">
        <ele>1559.395752</ele>
        <time>2012-02-13T12:32:57Z</time>
      </trkpt>
      <trkpt lat="45.98012" lon="6.44558">
        <ele>1558.915039</ele>
        <time>2012-02-13T12:32:58Z</time>
      </trkpt>
      <trkpt lat="45.98007" lon="6.44582">
        <ele>1556.992432</ele>
        <time>2012-02-13T12:33:10Z</time>
      </trkpt>
      <trkpt lat="45.98" lon="6.44609">
        <ele>1554.108643</ele>
        <time>2012-02-13T12:33:24Z</time>
      </trkpt>
      <trkpt lat="45.97994" lon="6.44633">
        <ele>1550.743896</ele>
        <time>2012-02-13T12:33:37Z</time>
      </trkpt>
      <trkpt lat="45.97991" lon="6.44641">
        <ele>1548.821289</ele>
        <time>2012-02-13T12:33:41Z</time>
      </trkpt>
      <trkpt lat="45.9798" lon="6.44652">
        <ele>1547.859863</ele>
        <time>2012-02-13T12:33:51Z</time>
      </trkpt>
      <trkpt lat="45.97979" lon="6.44653">
        <ele>1547.37915</ele>
        <time>2012-02-13T12:33:52Z</time>
      </trkpt>
      <trkpt lat="45.9798" lon="6.44662">
        <ele>1546.417969</ele>
        <time>2012-02-13T12:33:58Z</time>
      </trkpt>
      <trkpt lat="45.97978" lon="6.44666">
        <ele>1545.456543</ele>
        <time>2012-02-13T12:34:01Z</time>
      </trkpt>
      <trkpt lat="45.97975" lon="6.44671">
        <ele>1544.014648</ele>
        <time>2012-02-13T12:34:05Z</time>
      </trkpt>
      <trkpt lat="45.97971" lon="6.4468">
        <ele>1540.649902</ele>
        <time>2012-02-13T12:34:11Z</time>
      </trkpt>
      <trkpt lat="45.9796" lon="6.44689">
        <ele>1538.246826</ele>
        <time>2012-02-13T12:34:22Z</time>
      </trkpt>
      <trkpt lat="45.97945" lon="6.44698">
        <ele>1537.2854</ele>
        <time>2012-02-13T12:34:33Z</time>
      </trkpt>
      <trkpt lat="45.97933" lon="6.4471">
        <ele>1536.324219</ele>
        <time>2012-02-13T12:34:45Z</time>
      </trkpt>
      <trkpt lat="45.9792" lon="6.44725">
        <ele>1533.920898</ele>
        <time>2012-02-13T12:34:57Z</time>
      </trkpt>
      <trkpt lat="45.97914" lon="6.44731">
        <ele>1531.998047</ele>
        <time>2012-02-13T12:35:02Z</time>
      </trkpt>
      <trkpt lat="45.97899" lon="6.44746">
        <ele>1529.114014</ele>
        <time>2012-02-13T12:35:15Z</time>
      </trkpt>
      <trkpt lat="45.97895" lon="6.44757">
        <ele>1526.230225</ele>
        <time>2012-02-13T12:35:21Z</time>
      </trkpt>
      <trkpt lat="45.97891" lon="6.44759">
        <ele>1524.78833</ele>
        <time>2012-02-13T12:35:25Z</time>
      </trkpt>
      <trkpt lat="45.97887" lon="6.44767">
        <ele>1522.38501</ele>
        <time>2012-02-13T12:35:30Z</time>
      </trkpt>
      <trkpt lat="45.97875" lon="6.44772">
        <ele>1518.539795</ele>
        <time>2012-02-13T12:35:40Z</time>
      </trkpt>
      <trkpt lat="45.97868" lon="6.44773">
        <ele>1515.655762</ele>
        <time>2012-02-13T12:35:45Z</time>
      </trkpt>
      <trkpt lat="45.97861" lon="6.44774">
        <ele>1512.771729</ele>
        <time>2012-02-13T12:35:50Z</time>
      </trkpt>
      <trkpt lat="45.97848" lon="6.44778">
        <ele>1509.887695</ele>
        <time>2012-02-13T12:35:58Z</time>
      </trkpt>
      <trkpt lat="45.97834" lon="6.44782">
        <ele>1506.04248</ele>
        <time>2012-02-13T12:36:08Z</time>
      </trkpt>
      <trkpt lat="45.97822" lon="6.44789">
        <ele>1502.677979</ele>
        <time>2012-02-13T12:36:18Z</time>
      </trkpt>
      <trkpt lat="45.97814" lon="6.44804">
        <ele>1499.313232</ele>
        <time>2012-02-13T12:36:27Z</time>
      </trkpt>
      <trkpt lat="45.97806" lon="6.4482">
        <ele>1495.94873</ele>
        <time>2012-02-13T12:36:37Z</time>
      </trkpt>
      <trkpt lat="45.978" lon="6.44825">
        <ele>1494.506592</ele>
        <time>2012-02-13T12:36:42Z</time>
      </trkpt>
      <trkpt lat="45.97783" lon="6.44829">
        <ele>1491.14209</ele>
        <time>2012-02-13T12:36:55Z</time>
      </trkpt>
      <trkpt lat="45.97779" lon="6.44831">
        <ele>1489.219482</ele>
        <time>2012-02-13T12:36:58Z</time>
      </trkpt>
      <trkpt lat="45.97769" lon="6.4484">
        <ele>1487.296875</ele>
        <time>2012-02-13T12:37:07Z</time>
      </trkpt>
      <trkpt lat="45.97764" lon="6.44846">
        <ele>1485.85498</ele>
        <time>2012-02-13T12:37:12Z</time>
      </trkpt>
      <trkpt lat="45.97753" lon="6.44863">
        <ele>1482.490234</ele>
        <time>2012-02-13T12:37:23Z</time>
      </trkpt>
      <trkpt lat="45.97742" lon="6.44883">
        <ele>1479.125488</ele>
        <time>2012-02-13T12:37:36Z</time>
      </trkpt>
      <trkpt lat="45.97739" lon="6.44896">
        <ele>1477.683594</ele>
        <time>2012-02-13T12:37:43Z</time>
      </trkpt>
      <trkpt lat="45.97729" lon="6.44916">
        <ele>1475.280273</ele>
        <time>2012-02-13T12:37:55Z</time>
      </trkpt>
      <trkpt lat="45.97718" lon="6.44936">
        <ele>1472.396484</ele>
        <time>2012-02-13T12:38:07Z</time>
      </trkpt>
      <trkpt lat="45.97711" lon="6.44954">
        <ele>1469.993164</ele>
        <time>2012-02-13T12:38:18Z</time>
      </trkpt>
      <trkpt lat="45.97707" lon="6.44959">
        <ele>1469.031982</ele>
        <time>2012-02-13T12:38:22Z</time>
      </trkpt>
      <trkpt lat="45.97694" lon="6.4497">
        <ele>1467.5896</ele>
        <time>2012-02-13T12:38:33Z</time>
      </trkpt>
      <trkpt lat="45.97683" lon="6.44992">
        <ele>1465.186523</ele>
        <time>2012-02-13T12:38:46Z</time>
      </trkpt>
      <trkpt lat="45.97678" lon="6.45007">
        <ele>1463.744385</ele>
        <time>2012-02-13T12:38:54Z</time>
      </trkpt>
      <trkpt lat="45.97664" lon="6.45022">
        <ele>1462.30249</ele>
        <time>2012-02-13T12:39:06Z</time>
      </trkpt>
      <trkpt lat="45.97661" lon="6.45023">
        <ele>1461.341309</ele>
        <time>2012-02-13T12:39:08Z</time>
      </trkpt>
      <trkpt lat="45.97659" lon="6.45025">
        <ele>1461.341309</ele>
        <time>2012-02-13T12:39:14Z</time>
      </trkpt>
      <trkpt lat="45.97645" lon="6.45041">
        <ele>1458.457275</ele>
        <time>2012-02-13T12:39:56Z</time>
      </trkpt>
      <trkpt lat="45.97638" lon="6.45051">
        <ele>1456.053955</ele>
        <time>2012-02-13T12:40:02Z</time>
      </trkpt>
      <trkpt lat="45.97636" lon="6.4506">
        <ele>1454.612061</ele>
        <time>2012-02-13T12:40:07Z</time>
      </trkpt>
      <trkpt lat="45.97631" lon="6.45064">
        <ele>1452.689453</ele>
        <time>2012-02-13T12:40:11Z</time>
      </trkpt>
      <trkpt lat="45.97626" lon="6.45065">
        <ele>1451.247314</ele>
        <time>2012-02-13T12:40:14Z</time>
      </trkpt>
      <trkpt lat="45.97613" lon="6.45071">
        <ele>1447.882813</ele>
        <time>2012-02-13T12:40:23Z</time>
      </trkpt>
      <trkpt lat="45.9761" lon="6.45087">
        <ele>1444.518066</ele>
        <time>2012-02-13T12:40:31Z</time>
      </trkpt>
      <trkpt lat="45.97611" lon="6.45111">
        <ele>1441.153564</ele>
        <time>2012-02-13T12:40:42Z</time>
      </trkpt>
      <trkpt lat="45.97613" lon="6.45136">
        <ele>1438.269775</ele>
        <time>2012-02-13T12:40:54Z</time>
      </trkpt>
      <trkpt lat="45.97614" lon="6.45142">
        <ele>1436.827637</ele>
        <time>2012-02-13T12:40:57Z</time>
      </trkpt>
      <trkpt lat="45.97617" lon="6.45159">
        <ele>1433.462891</ele>
        <time>2012-02-13T12:41:05Z</time>
      </trkpt>
      <trkpt lat="45.97616" lon="6.45177">
        <ele>1431.059814</ele>
        <time>2012-02-13T12:41:15Z</time>
      </trkpt>
      <trkpt lat="45.97613" lon="6.45177">
        <ele>1430.098389</ele>
        <time>2012-02-13T12:41:17Z</time>
      </trkpt>
      <trkpt lat="45.97599" lon="6.45168">
        <ele>1427.695068</ele>
        <time>2012-02-13T12:41:27Z</time>
      </trkpt>
      <trkpt lat="45.97594" lon="6.45165">
        <ele>1425.772461</ele>
        <time>2012-02-13T12:41:31Z</time>
      </trkpt>
      <trkpt lat="45.97581" lon="6.4516">
        <ele>1422.407959</ele>
        <time>2012-02-13T12:41:40Z</time>
      </trkpt>
      <trkpt lat="45.97578" lon="6.45159">
        <ele>1421.446533</ele>
        <time>2012-02-13T12:41:42Z</time>
      </trkpt>
      <trkpt lat="45.97568" lon="6.45157">
        <ele>1418.5625</ele>
        <time>2012-02-13T12:41:49Z</time>
      </trkpt>
      <trkpt lat="45.97551" lon="6.45153">
        <ele>1415.678711</ele>
        <time>2012-02-13T12:42:01Z</time>
      </trkpt>
      <trkpt lat="45.97545" lon="6.45156">
        <ele>1413.755859</ele>
        <time>2012-02-13T12:42:06Z</time>
      </trkpt>
      <trkpt lat="45.97544" lon="6.45162">
        <ele>1412.794678</ele>
        <time>2012-02-13T12:42:09Z</time>
      </trkpt>
      <trkpt lat="45.97545" lon="6.45171">
        <ele>1411.352783</ele>
        <time>2012-02-13T12:42:13Z</time>
      </trkpt>
      <trkpt lat="45.97547" lon="6.45177">
        <ele>1409.910645</ele>
        <time>2012-02-13T12:42:16Z</time>
      </trkpt>
      <trkpt lat="45.9755" lon="6.45189">
        <ele>1406.546143</ele>
        <time>2012-02-13T12:42:22Z</time>
      </trkpt>
      <trkpt lat="45.97555" lon="6.45211">
        <ele>1403.662109</ele>
        <time>2012-02-13T12:42:33Z</time>
      </trkpt>
      <trkpt lat="45.97563" lon="6.45234">
        <ele>1400.778076</ele>
        <time>2012-02-13T12:42:45Z</time>
      </trkpt>
      <trkpt lat="45.97571" lon="6.45252">
        <ele>1398.855469</ele>
        <time>2012-02-13T12:42:55Z</time>
      </trkpt>
      <trkpt lat="45.97581" lon="6.45269">
        <ele>1395.97168</ele>
        <time>2012-02-13T12:43:06Z</time>
      </trkpt>
      <trkpt lat="45.97586" lon="6.45285">
        <ele>1392.607178</ele>
        <time>2012-02-13T12:43:14Z</time>
      </trkpt>
      <trkpt lat="45.97588" lon="6.45295">
        <ele>1391.165039</ele>
        <time>2012-02-13T12:43:19Z</time>
      </trkpt>
      <trkpt lat="45.97594" lon="6.45315">
        <ele>1388.761963</ele>
        <time>2012-02-13T12:43:29Z</time>
      </trkpt>
      <trkpt lat="45.97596" lon="6.45326">
        <ele>1386.358398</ele>
        <time>2012-02-13T12:43:35Z</time>
      </trkpt>
      <trkpt lat="45.97593" lon="6.45341">
        <ele>1382.993652</ele>
        <time>2012-02-13T12:43:43Z</time>
      </trkpt>
      <trkpt lat="45.97586" lon="6.45363">
        <ele>1381.071289</ele>
        <time>2012-02-13T12:43:55Z</time>
      </trkpt>
      <trkpt lat="45.97584" lon="6.45387">
        <ele>1379.148438</ele>
        <time>2012-02-13T12:44:07Z</time>
      </trkpt>
      <trkpt lat="45.97585" lon="6.45391">
        <ele>1377.706543</ele>
        <time>2012-02-13T12:44:09Z</time>
      </trkpt>
      <trkpt lat="45.97588" lon="6.45399">
        <ele>1375.783936</ele>
        <time>2012-02-13T12:44:13Z</time>
      </trkpt>
      <trkpt lat="45.97592" lon="6.45409">
        <ele>1373.380859</ele>
        <time>2012-02-13T12:44:18Z</time>
      </trkpt>
      <trkpt lat="45.97597" lon="6.45429">
        <ele>1371.457764</ele>
        <time>2012-02-13T12:44:28Z</time>
      </trkpt>
      <trkpt lat="45.976" lon="6.45442">
        <ele>1369.054688</ele>
        <time>2012-02-13T12:44:35Z</time>
      </trkpt>
      <trkpt lat="45.976" lon="6.45465">
        <ele>1365.690186</ele>
        <time>2012-02-13T12:44:46Z</time>
      </trkpt>
      <trkpt lat="45.97603" lon="6.45483">
        <ele>1362.325439</ele>
        <time>2012-02-13T12:44:55Z</time>
      </trkpt>
      <trkpt lat="45.97609" lon="6.45506">
        <ele>1359.44165</ele>
        <time>2012-02-13T12:45:06Z</time>
      </trkpt>
      <trkpt lat="45.97618" lon="6.45532">
        <ele>1357.03833</ele>
        <time>2012-02-13T12:45:18Z</time>
      </trkpt>
      <trkpt lat="45.97616" lon="6.4556">
        <ele>1354.154297</ele>
        <time>2012-02-13T12:45:31Z</time>
      </trkpt>
      <trkpt lat="45.97613" lon="6.45564">
        <ele>1352.712158</ele>
        <time>2012-02-13T12:45:37Z</time>
      </trkpt>
      <trkpt lat="45.97603" lon="6.45559">
        <ele>1353.673584</ele>
        <time>2012-02-13T12:46:04Z</time>
      </trkpt>
      <trkpt lat="45.97593" lon="6.45539">
        <ele>1353.192871</ele>
        <time>2012-02-13T12:46:16Z</time>
      </trkpt>
      <trkpt lat="45.97588" lon="6.45539">
        <ele>1352.712158</ele>
        <time>2012-02-13T12:46:23Z</time>
      </trkpt>
    </trkseg>
  </trk>
</gpx>